<?xml version="1.0" encoding="UTF-8" standalone="no" ?>
<gpx xmlns="http://www.topografix.com/GPX/1/1" xmlns:xsi="http://www.w3.org/2001/XMLSchema-instance" xsi:schemaLocation="http://www.topografix.com/GPX/1/1 http://www.topografix.com/GPX/1/1/gpx.xsd" version="1.1" creator="VisuGPX - https://www.visugpx.com">
  <metadata>
    <name>St Etienne de Serre 07</name>
  </metadata>
  <wpt lat="44.80122" lon="4.53596">
    <ele>598.2</ele>
    <name><![CDATA[DEPART]]></name>
  </wpt>
  <wpt lat="44.79583" lon="4.52938">
    <ele>674.4</ele>
  </wpt>
  <wpt lat="44.79732" lon="4.52161">
    <ele>696.5</ele>
    <name><![CDATA[COL DE CHOMELIX]]></name>
    <type><![CDATA[col]]></type>
  </wpt>
  <wpt lat="44.80045" lon="4.51361">
    <ele>666.4</ele>
  </wpt>
  <wpt lat="44.79819" lon="4.50685">
    <ele>657.4</ele>
  </wpt>
  <wpt lat="44.79849" lon="4.50397">
    <ele>638.5</ele>
  </wpt>
  <wpt lat="44.79793" lon="4.4993">
    <ele>684.7</ele>
  </wpt>
  <wpt lat="44.8014" lon="4.49978">
    <ele>629.9</ele>
    <name><![CDATA[CRAUX ]]></name>
    <type><![CDATA[ville]]></type>
  </wpt>
  <wpt lat="44.80111" lon="4.49814">
    <ele>638.5</ele>
  </wpt>
  <wpt lat="44.79652" lon="4.49093">
    <ele>738.5</ele>
  </wpt>
  <wpt lat="44.79297" lon="4.49138">
    <ele>825.4</ele>
    <name><![CDATA[L ORSANNE]]></name>
    <type><![CDATA[water]]></type>
  </wpt>
  <wpt lat="44.79212" lon="4.49706">
    <ele>902.9</ele>
  </wpt>
  <wpt lat="44.78997" lon="4.49429">
    <ele>958.4</ele>
    <name><![CDATA[POINT  HAUT 969]]></name>
    <type><![CDATA[sommet]]></type>
  </wpt>
  <wpt lat="44.78923" lon="4.49403">
    <ele>954.1</ele>
  </wpt>
  <wpt lat="44.79093" lon="4.49885">
    <ele>910.3</ele>
    <name><![CDATA[TABLE D ORIENTATION]]></name>
    <type><![CDATA[patrimoine_rural]]></type>
  </wpt>
  <wpt lat="44.79043" lon="4.50023">
    <ele>883.2</ele>
    <name><![CDATA[LES CESILLES]]></name>
  </wpt>
  <wpt lat="44.78711" lon="4.50128">
    <ele>839.6</ele>
  </wpt>
  <wpt lat="44.78987" lon="4.50864">
    <ele>728</ele>
  </wpt>
  <wpt lat="44.79146" lon="4.5095">
    <ele>721.1</ele>
    <name><![CDATA[LE CHIER ]]></name>
    <type><![CDATA[ville]]></type>
  </wpt>
  <wpt lat="44.79191" lon="4.51167">
    <ele>713.5</ele>
  </wpt>
  <wpt lat="44.79461" lon="4.51799">
    <ele>703.3</ele>
    <name><![CDATA[LES PEYROUS]]></name>
  </wpt>
  <wpt lat="44.79719" lon="4.52355">
    <ele>700.7</ele>
    <name><![CDATA[RETOUR]]></name>
  </wpt>
  <wpt lat="44.80095" lon="4.53637">
    <ele>597.8</ele>
    <name><![CDATA[ARRIVEE]]></name>
  </wpt>
  <trk>
    <name><![CDATA[2019-02-07 saint etienne de serre    depannage]]></name>
    <trkseg>
      <trkpt lat="44.80097" lon="4.53608">
        <ele>614.84</ele>
        <time>2019-02-07T08:40:22Z</time>
      </trkpt>
      <trkpt lat="44.80095" lon="4.53605">
        <ele>613.95</ele>
        <time>2019-02-07T08:40:55Z</time>
      </trkpt>
      <trkpt lat="44.8009" lon="4.53612">
        <ele>613.93</ele>
        <time>2019-02-07T08:41:08Z</time>
      </trkpt>
      <trkpt lat="44.80089" lon="4.53615">
        <ele>614.44</ele>
        <time>2019-02-07T08:41:22Z</time>
      </trkpt>
      <trkpt lat="44.80089" lon="4.5361">
        <ele>614.41</ele>
        <time>2019-02-07T08:41:48Z</time>
      </trkpt>
      <trkpt lat="44.80088" lon="4.5361">
        <ele>614.45</ele>
        <time>2019-02-07T08:42:16Z</time>
      </trkpt>
      <trkpt lat="44.80083" lon="4.53608">
        <ele>613.57</ele>
        <time>2019-02-07T08:42:32Z</time>
      </trkpt>
      <trkpt lat="44.80081" lon="4.53608">
        <ele>613.37</ele>
        <time>2019-02-07T08:43:22Z</time>
      </trkpt>
      <trkpt lat="44.80083" lon="4.53608">
        <ele>613.03</ele>
        <time>2019-02-07T08:44:39Z</time>
      </trkpt>
      <trkpt lat="44.80083" lon="4.53605">
        <ele>612.58</ele>
        <time>2019-02-07T08:46:00Z</time>
      </trkpt>
      <trkpt lat="44.80085" lon="4.53604">
        <ele>613.21</ele>
        <time>2019-02-07T08:46:30Z</time>
      </trkpt>
      <trkpt lat="44.80092" lon="4.53604">
        <ele>613.02</ele>
        <time>2019-02-07T08:46:46Z</time>
      </trkpt>
      <trkpt lat="44.80094" lon="4.53604">
        <ele>612.72</ele>
        <time>2019-02-07T08:46:48Z</time>
      </trkpt>
      <trkpt lat="44.80096" lon="4.53603">
        <ele>612.6</ele>
        <time>2019-02-07T08:46:50Z</time>
      </trkpt>
      <trkpt lat="44.80107" lon="4.53593">
        <ele>612.44</ele>
        <time>2019-02-07T08:47:05Z</time>
      </trkpt>
      <trkpt lat="44.80105" lon="4.53592">
        <ele>612.39</ele>
        <time>2019-02-07T08:47:17Z</time>
      </trkpt>
      <trkpt lat="44.80102" lon="4.5359">
        <ele>613.21</ele>
        <time>2019-02-07T08:47:26Z</time>
      </trkpt>
      <trkpt lat="44.80096" lon="4.53586">
        <ele>613.57</ele>
        <time>2019-02-07T08:47:44Z</time>
      </trkpt>
      <trkpt lat="44.80093" lon="4.53582">
        <ele>614.31</ele>
        <time>2019-02-07T08:47:58Z</time>
      </trkpt>
      <trkpt lat="44.80089" lon="4.5358">
        <ele>615.54</ele>
        <time>2019-02-07T08:48:07Z</time>
      </trkpt>
      <trkpt lat="44.80076" lon="4.53568">
        <ele>618.8</ele>
        <time>2019-02-07T08:48:22Z</time>
      </trkpt>
      <trkpt lat="44.80065" lon="4.53555">
        <ele>621.81</ele>
        <time>2019-02-07T08:48:37Z</time>
      </trkpt>
      <trkpt lat="44.80053" lon="4.53541">
        <ele>625.03</ele>
        <time>2019-02-07T08:48:53Z</time>
      </trkpt>
      <trkpt lat="44.80041" lon="4.53525">
        <ele>628.1</ele>
        <time>2019-02-07T08:49:12Z</time>
      </trkpt>
      <trkpt lat="44.80033" lon="4.53515">
        <ele>630.08</ele>
        <time>2019-02-07T08:49:26Z</time>
      </trkpt>
      <trkpt lat="44.8003" lon="4.53512">
        <ele>630.72</ele>
        <time>2019-02-07T08:49:30Z</time>
      </trkpt>
      <trkpt lat="44.80017" lon="4.53498">
        <ele>633.58</ele>
        <time>2019-02-07T08:49:48Z</time>
      </trkpt>
      <trkpt lat="44.80012" lon="4.5349">
        <ele>634.95</ele>
        <time>2019-02-07T08:49:57Z</time>
      </trkpt>
      <trkpt lat="44.80003" lon="4.53475">
        <ele>636.61</ele>
        <time>2019-02-07T08:50:12Z</time>
      </trkpt>
      <trkpt lat="44.79999" lon="4.53466">
        <ele>638.25</ele>
        <time>2019-02-07T08:50:21Z</time>
      </trkpt>
      <trkpt lat="44.79998" lon="4.53463">
        <ele>639</ele>
        <time>2019-02-07T08:50:27Z</time>
      </trkpt>
      <trkpt lat="44.79993" lon="4.53456">
        <ele>639.98</ele>
        <time>2019-02-07T08:50:34Z</time>
      </trkpt>
      <trkpt lat="44.79983" lon="4.53442">
        <ele>643.22</ele>
        <time>2019-02-07T08:50:50Z</time>
      </trkpt>
      <trkpt lat="44.79973" lon="4.53428">
        <ele>645.98</ele>
        <time>2019-02-07T08:51:07Z</time>
      </trkpt>
      <trkpt lat="44.79961" lon="4.53413">
        <ele>649.11</ele>
        <time>2019-02-07T08:51:25Z</time>
      </trkpt>
      <trkpt lat="44.79953" lon="4.53399">
        <ele>652.03</ele>
        <time>2019-02-07T08:51:42Z</time>
      </trkpt>
      <trkpt lat="44.79947" lon="4.53379">
        <ele>653.64</ele>
        <time>2019-02-07T08:51:59Z</time>
      </trkpt>
      <trkpt lat="44.79947" lon="4.53378">
        <ele>653.68</ele>
        <time>2019-02-07T08:52:00Z</time>
      </trkpt>
      <trkpt lat="44.79938" lon="4.53361">
        <ele>655.56</ele>
        <time>2019-02-07T08:52:17Z</time>
      </trkpt>
      <trkpt lat="44.7993" lon="4.53339">
        <ele>657.22</ele>
        <time>2019-02-07T08:52:34Z</time>
      </trkpt>
      <trkpt lat="44.79923" lon="4.53314">
        <ele>658.17</ele>
        <time>2019-02-07T08:52:52Z</time>
      </trkpt>
      <trkpt lat="44.79918" lon="4.53286">
        <ele>659.82</ele>
        <time>2019-02-07T08:53:12Z</time>
      </trkpt>
      <trkpt lat="44.79915" lon="4.53259">
        <ele>661.41</ele>
        <time>2019-02-07T08:53:32Z</time>
      </trkpt>
      <trkpt lat="44.79914" lon="4.53246">
        <ele>661.88</ele>
        <time>2019-02-07T08:53:43Z</time>
      </trkpt>
      <trkpt lat="44.79911" lon="4.53238">
        <ele>662.22</ele>
        <time>2019-02-07T08:53:58Z</time>
      </trkpt>
      <trkpt lat="44.7991" lon="4.53234">
        <ele>662.58</ele>
        <time>2019-02-07T08:54:17Z</time>
      </trkpt>
      <trkpt lat="44.79904" lon="4.53226">
        <ele>663.36</ele>
        <time>2019-02-07T08:54:48Z</time>
      </trkpt>
      <trkpt lat="44.79898" lon="4.53217">
        <ele>665.12</ele>
        <time>2019-02-07T08:55:03Z</time>
      </trkpt>
      <trkpt lat="44.79891" lon="4.53205">
        <ele>667.22</ele>
        <time>2019-02-07T08:55:17Z</time>
      </trkpt>
      <trkpt lat="44.79883" lon="4.532">
        <ele>669.13</ele>
        <time>2019-02-07T08:55:32Z</time>
      </trkpt>
      <trkpt lat="44.79878" lon="4.53192">
        <ele>670.83</ele>
        <time>2019-02-07T08:55:46Z</time>
      </trkpt>
      <trkpt lat="44.79871" lon="4.53183">
        <ele>673.19</ele>
        <time>2019-02-07T08:56:01Z</time>
      </trkpt>
      <trkpt lat="44.79863" lon="4.53179">
        <ele>673.61</ele>
        <time>2019-02-07T08:56:15Z</time>
      </trkpt>
      <trkpt lat="44.79861" lon="4.53177">
        <ele>673.36</ele>
        <time>2019-02-07T08:56:18Z</time>
      </trkpt>
      <trkpt lat="44.79852" lon="4.53164">
        <ele>674.05</ele>
        <time>2019-02-07T08:56:35Z</time>
      </trkpt>
      <trkpt lat="44.79847" lon="4.53158">
        <ele>673.17</ele>
        <time>2019-02-07T08:56:45Z</time>
      </trkpt>
      <trkpt lat="44.79837" lon="4.53153">
        <ele>672.43</ele>
        <time>2019-02-07T08:57:00Z</time>
      </trkpt>
      <trkpt lat="44.79835" lon="4.53153">
        <ele>672.11</ele>
        <time>2019-02-07T08:57:02Z</time>
      </trkpt>
      <trkpt lat="44.79827" lon="4.53148">
        <ele>672.21</ele>
        <time>2019-02-07T08:57:20Z</time>
      </trkpt>
      <trkpt lat="44.79826" lon="4.53147">
        <ele>672.21</ele>
        <time>2019-02-07T08:57:36Z</time>
      </trkpt>
      <trkpt lat="44.79824" lon="4.53146">
        <ele>672.63</ele>
        <time>2019-02-07T08:57:39Z</time>
      </trkpt>
      <trkpt lat="44.79818" lon="4.53134">
        <ele>675.34</ele>
        <time>2019-02-07T08:57:53Z</time>
      </trkpt>
      <trkpt lat="44.79811" lon="4.53125">
        <ele>677.94</ele>
        <time>2019-02-07T08:58:07Z</time>
      </trkpt>
      <trkpt lat="44.79805" lon="4.53114">
        <ele>681</ele>
        <time>2019-02-07T08:58:23Z</time>
      </trkpt>
      <trkpt lat="44.79804" lon="4.53112">
        <ele>681.77</ele>
        <time>2019-02-07T08:58:26Z</time>
      </trkpt>
      <trkpt lat="44.79802" lon="4.5311">
        <ele>681.94</ele>
        <time>2019-02-07T08:58:28Z</time>
      </trkpt>
      <trkpt lat="44.79798" lon="4.53106">
        <ele>682.79</ele>
        <time>2019-02-07T08:58:46Z</time>
      </trkpt>
      <trkpt lat="44.79796" lon="4.53104">
        <ele>682.65</ele>
        <time>2019-02-07T08:59:08Z</time>
      </trkpt>
      <trkpt lat="44.79794" lon="4.53101">
        <ele>682.96</ele>
        <time>2019-02-07T08:59:18Z</time>
      </trkpt>
      <trkpt lat="44.79792" lon="4.531">
        <ele>683.21</ele>
        <time>2019-02-07T08:59:20Z</time>
      </trkpt>
      <trkpt lat="44.79791" lon="4.53099">
        <ele>683.38</ele>
        <time>2019-02-07T08:59:22Z</time>
      </trkpt>
      <trkpt lat="44.79776" lon="4.53087">
        <ele>685.16</ele>
        <time>2019-02-07T08:59:40Z</time>
      </trkpt>
      <trkpt lat="44.79776" lon="4.53086">
        <ele>685.28</ele>
        <time>2019-02-07T08:59:41Z</time>
      </trkpt>
      <trkpt lat="44.79774" lon="4.53083">
        <ele>685.52</ele>
        <time>2019-02-07T08:59:44Z</time>
      </trkpt>
      <trkpt lat="44.7977" lon="4.53075">
        <ele>686.6</ele>
        <time>2019-02-07T08:59:51Z</time>
      </trkpt>
      <trkpt lat="44.79753" lon="4.53061">
        <ele>687.32</ele>
        <time>2019-02-07T09:00:09Z</time>
      </trkpt>
      <trkpt lat="44.79737" lon="4.53045">
        <ele>687.37</ele>
        <time>2019-02-07T09:00:27Z</time>
      </trkpt>
      <trkpt lat="44.7972" lon="4.53026">
        <ele>687.75</ele>
        <time>2019-02-07T09:00:46Z</time>
      </trkpt>
      <trkpt lat="44.79717" lon="4.53024">
        <ele>687.74</ele>
        <time>2019-02-07T09:00:49Z</time>
      </trkpt>
      <trkpt lat="44.79714" lon="4.53023">
        <ele>687.66</ele>
        <time>2019-02-07T09:00:52Z</time>
      </trkpt>
      <trkpt lat="44.79698" lon="4.53004">
        <ele>688.66</ele>
        <time>2019-02-07T09:01:10Z</time>
      </trkpt>
      <trkpt lat="44.79676" lon="4.52987">
        <ele>688.28</ele>
        <time>2019-02-07T09:01:30Z</time>
      </trkpt>
      <trkpt lat="44.79654" lon="4.5297">
        <ele>688.31</ele>
        <time>2019-02-07T09:01:50Z</time>
      </trkpt>
      <trkpt lat="44.79631" lon="4.52962">
        <ele>688.65</ele>
        <time>2019-02-07T09:02:09Z</time>
      </trkpt>
      <trkpt lat="44.79611" lon="4.52953">
        <ele>688.74</ele>
        <time>2019-02-07T09:02:27Z</time>
      </trkpt>
      <trkpt lat="44.7961" lon="4.52952">
        <ele>688.65</ele>
        <time>2019-02-07T09:02:28Z</time>
      </trkpt>
      <trkpt lat="44.79595" lon="4.52944">
        <ele>687.27</ele>
        <time>2019-02-07T09:02:45Z</time>
      </trkpt>
      <trkpt lat="44.79594" lon="4.52943">
        <ele>686.97</ele>
        <time>2019-02-07T09:03:00Z</time>
      </trkpt>
      <trkpt lat="44.79594" lon="4.52941">
        <ele>686.66</ele>
        <time>2019-02-07T09:03:22Z</time>
      </trkpt>
      <trkpt lat="44.79595" lon="4.52937">
        <ele>686.93</ele>
        <time>2019-02-07T09:03:25Z</time>
      </trkpt>
      <trkpt lat="44.79598" lon="4.5293">
        <ele>687.64</ele>
        <time>2019-02-07T09:03:30Z</time>
      </trkpt>
      <trkpt lat="44.79612" lon="4.52909">
        <ele>688.61</ele>
        <time>2019-02-07T09:03:49Z</time>
      </trkpt>
      <trkpt lat="44.79617" lon="4.52898">
        <ele>689.49</ele>
        <time>2019-02-07T09:03:57Z</time>
      </trkpt>
      <trkpt lat="44.79625" lon="4.52877">
        <ele>690.29</ele>
        <time>2019-02-07T09:04:12Z</time>
      </trkpt>
      <trkpt lat="44.79628" lon="4.52855">
        <ele>691.17</ele>
        <time>2019-02-07T09:04:28Z</time>
      </trkpt>
      <trkpt lat="44.7963" lon="4.52851">
        <ele>691.18</ele>
        <time>2019-02-07T09:04:38Z</time>
      </trkpt>
      <trkpt lat="44.79631" lon="4.52845">
        <ele>691.41</ele>
        <time>2019-02-07T09:04:43Z</time>
      </trkpt>
      <trkpt lat="44.79637" lon="4.52815">
        <ele>691.58</ele>
        <time>2019-02-07T09:05:01Z</time>
      </trkpt>
      <trkpt lat="44.79643" lon="4.52787">
        <ele>691.63</ele>
        <time>2019-02-07T09:05:19Z</time>
      </trkpt>
      <trkpt lat="44.79653" lon="4.52759">
        <ele>691.43</ele>
        <time>2019-02-07T09:05:40Z</time>
      </trkpt>
      <trkpt lat="44.79662" lon="4.5273">
        <ele>691.96</ele>
        <time>2019-02-07T09:05:59Z</time>
      </trkpt>
      <trkpt lat="44.7967" lon="4.52698">
        <ele>692.81</ele>
        <time>2019-02-07T09:06:20Z</time>
      </trkpt>
      <trkpt lat="44.79677" lon="4.52666">
        <ele>694.54</ele>
        <time>2019-02-07T09:06:41Z</time>
      </trkpt>
      <trkpt lat="44.7968" lon="4.5263">
        <ele>695.85</ele>
        <time>2019-02-07T09:07:03Z</time>
      </trkpt>
      <trkpt lat="44.79682" lon="4.52597">
        <ele>697.25</ele>
        <time>2019-02-07T09:07:25Z</time>
      </trkpt>
      <trkpt lat="44.79681" lon="4.52566">
        <ele>698.92</ele>
        <time>2019-02-07T09:07:45Z</time>
      </trkpt>
      <trkpt lat="44.79681" lon="4.52551">
        <ele>700.02</ele>
        <time>2019-02-07T09:08:00Z</time>
      </trkpt>
      <trkpt lat="44.79681" lon="4.52544">
        <ele>700.3</ele>
        <time>2019-02-07T09:08:05Z</time>
      </trkpt>
      <trkpt lat="44.7968" lon="4.5253">
        <ele>700.99</ele>
        <time>2019-02-07T09:08:24Z</time>
      </trkpt>
      <trkpt lat="44.7968" lon="4.52519">
        <ele>701.8</ele>
        <time>2019-02-07T09:08:38Z</time>
      </trkpt>
      <trkpt lat="44.79679" lon="4.52512">
        <ele>702.1</ele>
        <time>2019-02-07T09:08:53Z</time>
      </trkpt>
      <trkpt lat="44.79681" lon="4.52478">
        <ele>704.49</ele>
        <time>2019-02-07T09:09:15Z</time>
      </trkpt>
      <trkpt lat="44.79685" lon="4.5245">
        <ele>706.67</ele>
        <time>2019-02-07T09:09:33Z</time>
      </trkpt>
      <trkpt lat="44.79689" lon="4.52417">
        <ele>708.41</ele>
        <time>2019-02-07T09:09:54Z</time>
      </trkpt>
      <trkpt lat="44.79692" lon="4.52387">
        <ele>709.05</ele>
        <time>2019-02-07T09:10:13Z</time>
      </trkpt>
      <trkpt lat="44.79703" lon="4.52353">
        <ele>709.35</ele>
        <time>2019-02-07T09:10:35Z</time>
      </trkpt>
      <trkpt lat="44.79717" lon="4.52317">
        <ele>709.44</ele>
        <time>2019-02-07T09:10:59Z</time>
      </trkpt>
      <trkpt lat="44.79733" lon="4.52282">
        <ele>709.88</ele>
        <time>2019-02-07T09:11:23Z</time>
      </trkpt>
      <trkpt lat="44.79747" lon="4.52251">
        <ele>710.21</ele>
        <time>2019-02-07T09:11:44Z</time>
      </trkpt>
      <trkpt lat="44.79759" lon="4.52219">
        <ele>710.09</ele>
        <time>2019-02-07T09:12:05Z</time>
      </trkpt>
      <trkpt lat="44.79765" lon="4.52204">
        <ele>709.97</ele>
        <time>2019-02-07T09:12:15Z</time>
      </trkpt>
      <trkpt lat="44.79771" lon="4.52194">
        <ele>709.57</ele>
        <time>2019-02-07T09:12:22Z</time>
      </trkpt>
      <trkpt lat="44.79778" lon="4.52174">
        <ele>709.6</ele>
        <time>2019-02-07T09:12:38Z</time>
      </trkpt>
      <trkpt lat="44.79779" lon="4.52162">
        <ele>709.74</ele>
        <time>2019-02-07T09:12:53Z</time>
      </trkpt>
      <trkpt lat="44.79777" lon="4.52161">
        <ele>709.47</ele>
        <time>2019-02-07T09:13:08Z</time>
      </trkpt>
      <trkpt lat="44.79777" lon="4.52162">
        <ele>709.36</ele>
        <time>2019-02-07T09:13:23Z</time>
      </trkpt>
      <trkpt lat="44.79779" lon="4.52159">
        <ele>709.51</ele>
        <time>2019-02-07T09:13:31Z</time>
      </trkpt>
      <trkpt lat="44.7978" lon="4.52153">
        <ele>709.54</ele>
        <time>2019-02-07T09:13:36Z</time>
      </trkpt>
      <trkpt lat="44.7978" lon="4.52131">
        <ele>710.18</ele>
        <time>2019-02-07T09:13:51Z</time>
      </trkpt>
      <trkpt lat="44.79771" lon="4.52097">
        <ele>711.78</ele>
        <time>2019-02-07T09:14:13Z</time>
      </trkpt>
      <trkpt lat="44.7977" lon="4.52075">
        <ele>712.1</ele>
        <time>2019-02-07T09:14:28Z</time>
      </trkpt>
      <trkpt lat="44.79771" lon="4.52049">
        <ele>711.18</ele>
        <time>2019-02-07T09:14:46Z</time>
      </trkpt>
      <trkpt lat="44.79772" lon="4.5201">
        <ele>709.84</ele>
        <time>2019-02-07T09:15:08Z</time>
      </trkpt>
      <trkpt lat="44.79781" lon="4.5198">
        <ele>708.42</ele>
        <time>2019-02-07T09:15:28Z</time>
      </trkpt>
      <trkpt lat="44.79797" lon="4.5196">
        <ele>706.68</ele>
        <time>2019-02-07T09:15:50Z</time>
      </trkpt>
      <trkpt lat="44.79813" lon="4.51944">
        <ele>704.86</ele>
        <time>2019-02-07T09:16:09Z</time>
      </trkpt>
      <trkpt lat="44.79814" lon="4.51943">
        <ele>705</ele>
        <time>2019-02-07T09:16:19Z</time>
      </trkpt>
      <trkpt lat="44.79827" lon="4.51932">
        <ele>703.74</ele>
        <time>2019-02-07T09:16:37Z</time>
      </trkpt>
      <trkpt lat="44.7984" lon="4.51921">
        <ele>701.67</ele>
        <time>2019-02-07T09:16:52Z</time>
      </trkpt>
      <trkpt lat="44.79857" lon="4.51902">
        <ele>699.94</ele>
        <time>2019-02-07T09:17:12Z</time>
      </trkpt>
      <trkpt lat="44.79872" lon="4.51883">
        <ele>698.33</ele>
        <time>2019-02-07T09:17:30Z</time>
      </trkpt>
      <trkpt lat="44.79883" lon="4.51864">
        <ele>696.73</ele>
        <time>2019-02-07T09:17:47Z</time>
      </trkpt>
      <trkpt lat="44.79893" lon="4.51838">
        <ele>695.29</ele>
        <time>2019-02-07T09:18:06Z</time>
      </trkpt>
      <trkpt lat="44.79904" lon="4.51811">
        <ele>694.04</ele>
        <time>2019-02-07T09:18:25Z</time>
      </trkpt>
      <trkpt lat="44.79915" lon="4.51783">
        <ele>692.8</ele>
        <time>2019-02-07T09:18:47Z</time>
      </trkpt>
      <trkpt lat="44.79915" lon="4.51782">
        <ele>692.88</ele>
        <time>2019-02-07T09:19:00Z</time>
      </trkpt>
      <trkpt lat="44.79919" lon="4.5177">
        <ele>691.82</ele>
        <time>2019-02-07T09:19:15Z</time>
      </trkpt>
      <trkpt lat="44.79919" lon="4.51768">
        <ele>691.58</ele>
        <time>2019-02-07T09:19:31Z</time>
      </trkpt>
      <trkpt lat="44.79921" lon="4.51762">
        <ele>691.07</ele>
        <time>2019-02-07T09:19:50Z</time>
      </trkpt>
      <trkpt lat="44.79931" lon="4.51731">
        <ele>688.62</ele>
        <time>2019-02-07T09:20:11Z</time>
      </trkpt>
      <trkpt lat="44.79942" lon="4.51701">
        <ele>686.66</ele>
        <time>2019-02-07T09:20:32Z</time>
      </trkpt>
      <trkpt lat="44.79957" lon="4.51656">
        <ele>686.12</ele>
        <time>2019-02-07T09:21:00Z</time>
      </trkpt>
      <trkpt lat="44.79968" lon="4.51624">
        <ele>685.91</ele>
        <time>2019-02-07T09:21:21Z</time>
      </trkpt>
      <trkpt lat="44.79971" lon="4.51617">
        <ele>686.21</ele>
        <time>2019-02-07T09:21:26Z</time>
      </trkpt>
      <trkpt lat="44.79974" lon="4.51598">
        <ele>685.85</ele>
        <time>2019-02-07T09:21:37Z</time>
      </trkpt>
      <trkpt lat="44.79977" lon="4.51586">
        <ele>685.5</ele>
        <time>2019-02-07T09:21:48Z</time>
      </trkpt>
      <trkpt lat="44.79978" lon="4.5158">
        <ele>685.27</ele>
        <time>2019-02-07T09:21:52Z</time>
      </trkpt>
      <trkpt lat="44.79977" lon="4.51551">
        <ele>684.97</ele>
        <time>2019-02-07T09:22:13Z</time>
      </trkpt>
      <trkpt lat="44.79977" lon="4.51548">
        <ele>684.53</ele>
        <time>2019-02-07T09:22:17Z</time>
      </trkpt>
      <trkpt lat="44.79976" lon="4.51532">
        <ele>684.53</ele>
        <time>2019-02-07T09:22:26Z</time>
      </trkpt>
      <trkpt lat="44.79977" lon="4.51494">
        <ele>684.02</ele>
        <time>2019-02-07T09:22:49Z</time>
      </trkpt>
      <trkpt lat="44.7998" lon="4.51456">
        <ele>684.24</ele>
        <time>2019-02-07T09:23:12Z</time>
      </trkpt>
      <trkpt lat="44.79991" lon="4.51423">
        <ele>682.59</ele>
        <time>2019-02-07T09:23:35Z</time>
      </trkpt>
      <trkpt lat="44.8001" lon="4.51409">
        <ele>681.92</ele>
        <time>2019-02-07T09:23:54Z</time>
      </trkpt>
      <trkpt lat="44.80024" lon="4.51395">
        <ele>681.28</ele>
        <time>2019-02-07T09:24:10Z</time>
      </trkpt>
      <trkpt lat="44.80037" lon="4.51374">
        <ele>680.15</ele>
        <time>2019-02-07T09:24:29Z</time>
      </trkpt>
      <trkpt lat="44.80037" lon="4.51372">
        <ele>679.78</ele>
        <time>2019-02-07T09:24:55Z</time>
      </trkpt>
      <trkpt lat="44.80036" lon="4.5137">
        <ele>679.69</ele>
        <time>2019-02-07T09:24:57Z</time>
      </trkpt>
      <trkpt lat="44.80036" lon="4.51359">
        <ele>679.29</ele>
        <time>2019-02-07T09:25:04Z</time>
      </trkpt>
      <trkpt lat="44.80035" lon="4.51354">
        <ele>678.95</ele>
        <time>2019-02-07T09:25:07Z</time>
      </trkpt>
      <trkpt lat="44.80034" lon="4.51352">
        <ele>678.86</ele>
        <time>2019-02-07T09:25:09Z</time>
      </trkpt>
      <trkpt lat="44.80025" lon="4.51327">
        <ele>677.41</ele>
        <time>2019-02-07T09:25:27Z</time>
      </trkpt>
      <trkpt lat="44.80014" lon="4.51302">
        <ele>676.89</ele>
        <time>2019-02-07T09:25:47Z</time>
      </trkpt>
      <trkpt lat="44.80014" lon="4.513">
        <ele>676.96</ele>
        <time>2019-02-07T09:25:51Z</time>
      </trkpt>
      <trkpt lat="44.80013" lon="4.51297">
        <ele>676.63</ele>
        <time>2019-02-07T09:25:54Z</time>
      </trkpt>
      <trkpt lat="44.80004" lon="4.51273">
        <ele>676.48</ele>
        <time>2019-02-07T09:26:13Z</time>
      </trkpt>
      <trkpt lat="44.79996" lon="4.51252">
        <ele>676.49</ele>
        <time>2019-02-07T09:26:28Z</time>
      </trkpt>
      <trkpt lat="44.7999" lon="4.51223">
        <ele>676.42</ele>
        <time>2019-02-07T09:26:45Z</time>
      </trkpt>
      <trkpt lat="44.79982" lon="4.51188">
        <ele>675.06</ele>
        <time>2019-02-07T09:27:08Z</time>
      </trkpt>
      <trkpt lat="44.79977" lon="4.51161">
        <ele>672.86</ele>
        <time>2019-02-07T09:27:25Z</time>
      </trkpt>
      <trkpt lat="44.79975" lon="4.51132">
        <ele>671.28</ele>
        <time>2019-02-07T09:27:44Z</time>
      </trkpt>
      <trkpt lat="44.79972" lon="4.51101">
        <ele>669.71</ele>
        <time>2019-02-07T09:28:03Z</time>
      </trkpt>
      <trkpt lat="44.79972" lon="4.51092">
        <ele>669.34</ele>
        <time>2019-02-07T09:28:08Z</time>
      </trkpt>
      <trkpt lat="44.79972" lon="4.51059">
        <ele>668.38</ele>
        <time>2019-02-07T09:28:28Z</time>
      </trkpt>
      <trkpt lat="44.79971" lon="4.51025">
        <ele>666.92</ele>
        <time>2019-02-07T09:28:50Z</time>
      </trkpt>
      <trkpt lat="44.79961" lon="4.5099">
        <ele>665.4</ele>
        <time>2019-02-07T09:29:14Z</time>
      </trkpt>
      <trkpt lat="44.79948" lon="4.50969">
        <ele>665.22</ele>
        <time>2019-02-07T09:29:33Z</time>
      </trkpt>
      <trkpt lat="44.7994" lon="4.50951">
        <ele>664.73</ele>
        <time>2019-02-07T09:29:48Z</time>
      </trkpt>
      <trkpt lat="44.7993" lon="4.50924">
        <ele>664.43</ele>
        <time>2019-02-07T09:30:06Z</time>
      </trkpt>
      <trkpt lat="44.79929" lon="4.50919">
        <ele>664.23</ele>
        <time>2019-02-07T09:30:11Z</time>
      </trkpt>
      <trkpt lat="44.79922" lon="4.50906">
        <ele>663.62</ele>
        <time>2019-02-07T09:30:21Z</time>
      </trkpt>
      <trkpt lat="44.79913" lon="4.50888">
        <ele>662.34</ele>
        <time>2019-02-07T09:30:37Z</time>
      </trkpt>
      <trkpt lat="44.79902" lon="4.50875">
        <ele>661.05</ele>
        <time>2019-02-07T09:30:53Z</time>
      </trkpt>
      <trkpt lat="44.7989" lon="4.50863">
        <ele>659.72</ele>
        <time>2019-02-07T09:31:08Z</time>
      </trkpt>
      <trkpt lat="44.79886" lon="4.50859">
        <ele>658.96</ele>
        <time>2019-02-07T09:31:12Z</time>
      </trkpt>
      <trkpt lat="44.7988" lon="4.50851">
        <ele>657.93</ele>
        <time>2019-02-07T09:31:28Z</time>
      </trkpt>
      <trkpt lat="44.79875" lon="4.50846">
        <ele>657.26</ele>
        <time>2019-02-07T09:31:43Z</time>
      </trkpt>
      <trkpt lat="44.79865" lon="4.50836">
        <ele>655.84</ele>
        <time>2019-02-07T09:32:00Z</time>
      </trkpt>
      <trkpt lat="44.79848" lon="4.50817">
        <ele>653.85</ele>
        <time>2019-02-07T09:32:18Z</time>
      </trkpt>
      <trkpt lat="44.79844" lon="4.5081">
        <ele>653.45</ele>
        <time>2019-02-07T09:32:34Z</time>
      </trkpt>
      <trkpt lat="44.79842" lon="4.50806">
        <ele>653.09</ele>
        <time>2019-02-07T09:32:38Z</time>
      </trkpt>
      <trkpt lat="44.79839" lon="4.50802">
        <ele>652.59</ele>
        <time>2019-02-07T09:32:49Z</time>
      </trkpt>
      <trkpt lat="44.79829" lon="4.5078">
        <ele>651.01</ele>
        <time>2019-02-07T09:33:06Z</time>
      </trkpt>
      <trkpt lat="44.79827" lon="4.50763">
        <ele>650.36</ele>
        <time>2019-02-07T09:33:22Z</time>
      </trkpt>
      <trkpt lat="44.79829" lon="4.50755">
        <ele>650.14</ele>
        <time>2019-02-07T09:33:27Z</time>
      </trkpt>
      <trkpt lat="44.79831" lon="4.50743">
        <ele>649.18</ele>
        <time>2019-02-07T09:33:37Z</time>
      </trkpt>
      <trkpt lat="44.79831" lon="4.5072">
        <ele>647.53</ele>
        <time>2019-02-07T09:33:54Z</time>
      </trkpt>
      <trkpt lat="44.79832" lon="4.50698">
        <ele>646.19</ele>
        <time>2019-02-07T09:34:12Z</time>
      </trkpt>
      <trkpt lat="44.79835" lon="4.50678">
        <ele>644.64</ele>
        <time>2019-02-07T09:34:32Z</time>
      </trkpt>
      <trkpt lat="44.79834" lon="4.50678">
        <ele>643.88</ele>
        <time>2019-02-07T09:34:48Z</time>
      </trkpt>
      <trkpt lat="44.79831" lon="4.50666">
        <ele>644.24</ele>
        <time>2019-02-07T09:35:07Z</time>
      </trkpt>
      <trkpt lat="44.79834" lon="4.50668">
        <ele>644.34</ele>
        <time>2019-02-07T09:35:32Z</time>
      </trkpt>
      <trkpt lat="44.79838" lon="4.50662">
        <ele>643.85</ele>
        <time>2019-02-07T09:35:56Z</time>
      </trkpt>
      <trkpt lat="44.79837" lon="4.50656">
        <ele>643.29</ele>
        <time>2019-02-07T09:36:17Z</time>
      </trkpt>
      <trkpt lat="44.7984" lon="4.50633">
        <ele>641.41</ele>
        <time>2019-02-07T09:36:34Z</time>
      </trkpt>
      <trkpt lat="44.79842" lon="4.50615">
        <ele>639.98</ele>
        <time>2019-02-07T09:36:48Z</time>
      </trkpt>
      <trkpt lat="44.79842" lon="4.50598">
        <ele>639</ele>
        <time>2019-02-07T09:37:01Z</time>
      </trkpt>
      <trkpt lat="44.79843" lon="4.50585">
        <ele>637.94</ele>
        <time>2019-02-07T09:37:17Z</time>
      </trkpt>
      <trkpt lat="44.79843" lon="4.5057">
        <ele>637.43</ele>
        <time>2019-02-07T09:37:33Z</time>
      </trkpt>
      <trkpt lat="44.79844" lon="4.5055">
        <ele>635.66</ele>
        <time>2019-02-07T09:37:50Z</time>
      </trkpt>
      <trkpt lat="44.79844" lon="4.50534">
        <ele>634.51</ele>
        <time>2019-02-07T09:38:06Z</time>
      </trkpt>
      <trkpt lat="44.79842" lon="4.50533">
        <ele>634.34</ele>
        <time>2019-02-07T09:38:36Z</time>
      </trkpt>
      <trkpt lat="44.79843" lon="4.50531">
        <ele>634.23</ele>
        <time>2019-02-07T09:38:45Z</time>
      </trkpt>
      <trkpt lat="44.79846" lon="4.50519">
        <ele>633.18</ele>
        <time>2019-02-07T09:38:54Z</time>
      </trkpt>
      <trkpt lat="44.79852" lon="4.50495">
        <ele>632.59</ele>
        <time>2019-02-07T09:39:11Z</time>
      </trkpt>
      <trkpt lat="44.79853" lon="4.50492">
        <ele>632.24</ele>
        <time>2019-02-07T09:39:13Z</time>
      </trkpt>
      <trkpt lat="44.79856" lon="4.50483">
        <ele>632.37</ele>
        <time>2019-02-07T09:39:19Z</time>
      </trkpt>
      <trkpt lat="44.79859" lon="4.50471">
        <ele>632.28</ele>
        <time>2019-02-07T09:39:27Z</time>
      </trkpt>
      <trkpt lat="44.7986" lon="4.50462">
        <ele>632.16</ele>
        <time>2019-02-07T09:39:32Z</time>
      </trkpt>
      <trkpt lat="44.79861" lon="4.50459">
        <ele>632.18</ele>
        <time>2019-02-07T09:39:34Z</time>
      </trkpt>
      <trkpt lat="44.7987" lon="4.5043">
        <ele>631.81</ele>
        <time>2019-02-07T09:39:52Z</time>
      </trkpt>
      <trkpt lat="44.79873" lon="4.50418">
        <ele>631.9</ele>
        <time>2019-02-07T09:40:00Z</time>
      </trkpt>
      <trkpt lat="44.79872" lon="4.50412">
        <ele>631.9</ele>
        <time>2019-02-07T09:40:04Z</time>
      </trkpt>
      <trkpt lat="44.79873" lon="4.50409">
        <ele>631.87</ele>
        <time>2019-02-07T09:40:16Z</time>
      </trkpt>
      <trkpt lat="44.79872" lon="4.50387">
        <ele>634.44</ele>
        <time>2019-02-07T09:40:34Z</time>
      </trkpt>
      <trkpt lat="44.79868" lon="4.50373">
        <ele>636.76</ele>
        <time>2019-02-07T09:40:48Z</time>
      </trkpt>
      <trkpt lat="44.7986" lon="4.50357">
        <ele>640.04</ele>
        <time>2019-02-07T09:41:06Z</time>
      </trkpt>
      <trkpt lat="44.79852" lon="4.50344">
        <ele>642.04</ele>
        <time>2019-02-07T09:41:20Z</time>
      </trkpt>
      <trkpt lat="44.79843" lon="4.50326">
        <ele>644.56</ele>
        <time>2019-02-07T09:41:39Z</time>
      </trkpt>
      <trkpt lat="44.79842" lon="4.50321">
        <ele>644.71</ele>
        <time>2019-02-07T09:41:42Z</time>
      </trkpt>
      <trkpt lat="44.79838" lon="4.50305">
        <ele>645.05</ele>
        <time>2019-02-07T09:41:59Z</time>
      </trkpt>
      <trkpt lat="44.79834" lon="4.50289">
        <ele>646.38</ele>
        <time>2019-02-07T09:42:12Z</time>
      </trkpt>
      <trkpt lat="44.79829" lon="4.50274">
        <ele>648.83</ele>
        <time>2019-02-07T09:42:26Z</time>
      </trkpt>
      <trkpt lat="44.79827" lon="4.50268">
        <ele>649.24</ele>
        <time>2019-02-07T09:42:30Z</time>
      </trkpt>
      <trkpt lat="44.79826" lon="4.50251">
        <ele>650.99</ele>
        <time>2019-02-07T09:42:42Z</time>
      </trkpt>
      <trkpt lat="44.79824" lon="4.50239">
        <ele>652.03</ele>
        <time>2019-02-07T09:42:51Z</time>
      </trkpt>
      <trkpt lat="44.7982" lon="4.50223">
        <ele>653.44</ele>
        <time>2019-02-07T09:43:04Z</time>
      </trkpt>
      <trkpt lat="44.79818" lon="4.50206">
        <ele>655.18</ele>
        <time>2019-02-07T09:43:16Z</time>
      </trkpt>
      <trkpt lat="44.79815" lon="4.50189">
        <ele>656.63</ele>
        <time>2019-02-07T09:43:29Z</time>
      </trkpt>
      <trkpt lat="44.79815" lon="4.50181">
        <ele>657.36</ele>
        <time>2019-02-07T09:43:35Z</time>
      </trkpt>
      <trkpt lat="44.79815" lon="4.50162">
        <ele>658.9</ele>
        <time>2019-02-07T09:43:50Z</time>
      </trkpt>
      <trkpt lat="44.79817" lon="4.50153">
        <ele>659.55</ele>
        <time>2019-02-07T09:43:56Z</time>
      </trkpt>
      <trkpt lat="44.79821" lon="4.5014">
        <ele>660.19</ele>
        <time>2019-02-07T09:44:06Z</time>
      </trkpt>
      <trkpt lat="44.79826" lon="4.50122">
        <ele>661.56</ele>
        <time>2019-02-07T09:44:20Z</time>
      </trkpt>
      <trkpt lat="44.79826" lon="4.50113">
        <ele>662.32</ele>
        <time>2019-02-07T09:44:27Z</time>
      </trkpt>
      <trkpt lat="44.79823" lon="4.50093">
        <ele>663.76</ele>
        <time>2019-02-07T09:44:43Z</time>
      </trkpt>
      <trkpt lat="44.79818" lon="4.50077">
        <ele>665.98</ele>
        <time>2019-02-07T09:44:59Z</time>
      </trkpt>
      <trkpt lat="44.79816" lon="4.50067">
        <ele>666.87</ele>
        <time>2019-02-07T09:45:18Z</time>
      </trkpt>
      <trkpt lat="44.79811" lon="4.50046">
        <ele>669.15</ele>
        <time>2019-02-07T09:45:36Z</time>
      </trkpt>
      <trkpt lat="44.79812" lon="4.50039">
        <ele>669.55</ele>
        <time>2019-02-07T09:45:41Z</time>
      </trkpt>
      <trkpt lat="44.79814" lon="4.50021">
        <ele>670.15</ele>
        <time>2019-02-07T09:45:53Z</time>
      </trkpt>
      <trkpt lat="44.79816" lon="4.50008">
        <ele>670.52</ele>
        <time>2019-02-07T09:46:02Z</time>
      </trkpt>
      <trkpt lat="44.79817" lon="4.50001">
        <ele>670.75</ele>
        <time>2019-02-07T09:46:06Z</time>
      </trkpt>
      <trkpt lat="44.79818" lon="4.49983">
        <ele>671.8</ele>
        <time>2019-02-07T09:46:19Z</time>
      </trkpt>
      <trkpt lat="44.79815" lon="4.49963">
        <ele>673.49</ele>
        <time>2019-02-07T09:46:34Z</time>
      </trkpt>
      <trkpt lat="44.79815" lon="4.49946">
        <ele>674.95</ele>
        <time>2019-02-07T09:46:50Z</time>
      </trkpt>
      <trkpt lat="44.79816" lon="4.49943">
        <ele>674.89</ele>
        <time>2019-02-07T09:47:03Z</time>
      </trkpt>
      <trkpt lat="44.79814" lon="4.49944">
        <ele>674.81</ele>
        <time>2019-02-07T09:47:26Z</time>
      </trkpt>
      <trkpt lat="44.7982" lon="4.49942">
        <ele>673.92</ele>
        <time>2019-02-07T09:47:41Z</time>
      </trkpt>
      <trkpt lat="44.7983" lon="4.49941">
        <ele>672.75</ele>
        <time>2019-02-07T09:47:55Z</time>
      </trkpt>
      <trkpt lat="44.79845" lon="4.49944">
        <ele>670.72</ele>
        <time>2019-02-07T09:48:11Z</time>
      </trkpt>
      <trkpt lat="44.79852" lon="4.49946">
        <ele>668.43</ele>
        <time>2019-02-07T09:48:26Z</time>
      </trkpt>
      <trkpt lat="44.79856" lon="4.49947">
        <ele>667.21</ele>
        <time>2019-02-07T09:48:41Z</time>
      </trkpt>
      <trkpt lat="44.79866" lon="4.49946">
        <ele>664.47</ele>
        <time>2019-02-07T09:49:00Z</time>
      </trkpt>
      <trkpt lat="44.79868" lon="4.49947">
        <ele>664.59</ele>
        <time>2019-02-07T09:49:36Z</time>
      </trkpt>
      <trkpt lat="44.79878" lon="4.49947">
        <ele>661.95</ele>
        <time>2019-02-07T09:49:54Z</time>
      </trkpt>
      <trkpt lat="44.7989" lon="4.49948">
        <ele>659.88</ele>
        <time>2019-02-07T09:50:10Z</time>
      </trkpt>
      <trkpt lat="44.79901" lon="4.49945">
        <ele>657.19</ele>
        <time>2019-02-07T09:50:28Z</time>
      </trkpt>
      <trkpt lat="44.79902" lon="4.49933">
        <ele>655.32</ele>
        <time>2019-02-07T09:50:42Z</time>
      </trkpt>
      <trkpt lat="44.79901" lon="4.49918">
        <ele>652.78</ele>
        <time>2019-02-07T09:51:00Z</time>
      </trkpt>
      <trkpt lat="44.79902" lon="4.49896">
        <ele>650.11</ele>
        <time>2019-02-07T09:51:20Z</time>
      </trkpt>
      <trkpt lat="44.79901" lon="4.49874">
        <ele>646.86</ele>
        <time>2019-02-07T09:51:39Z</time>
      </trkpt>
      <trkpt lat="44.79904" lon="4.49867">
        <ele>646.59</ele>
        <time>2019-02-07T09:51:55Z</time>
      </trkpt>
      <trkpt lat="44.79911" lon="4.49858">
        <ele>643.74</ele>
        <time>2019-02-07T09:52:11Z</time>
      </trkpt>
      <trkpt lat="44.79914" lon="4.49856">
        <ele>643.28</ele>
        <time>2019-02-07T09:52:15Z</time>
      </trkpt>
      <trkpt lat="44.79921" lon="4.49843">
        <ele>640.39</ele>
        <time>2019-02-07T09:52:31Z</time>
      </trkpt>
      <trkpt lat="44.79924" lon="4.49829">
        <ele>638.9</ele>
        <time>2019-02-07T09:52:44Z</time>
      </trkpt>
      <trkpt lat="44.79926" lon="4.49814">
        <ele>636.66</ele>
        <time>2019-02-07T09:53:01Z</time>
      </trkpt>
      <trkpt lat="44.79928" lon="4.49808">
        <ele>636.01</ele>
        <time>2019-02-07T09:53:18Z</time>
      </trkpt>
      <trkpt lat="44.79929" lon="4.49794">
        <ele>634.94</ele>
        <time>2019-02-07T09:53:36Z</time>
      </trkpt>
      <trkpt lat="44.79935" lon="4.49793">
        <ele>634.78</ele>
        <time>2019-02-07T09:53:51Z</time>
      </trkpt>
      <trkpt lat="44.79943" lon="4.49799">
        <ele>635.57</ele>
        <time>2019-02-07T09:54:02Z</time>
      </trkpt>
      <trkpt lat="44.79952" lon="4.49809">
        <ele>637.07</ele>
        <time>2019-02-07T09:54:17Z</time>
      </trkpt>
      <trkpt lat="44.79953" lon="4.49814">
        <ele>637.05</ele>
        <time>2019-02-07T09:54:30Z</time>
      </trkpt>
      <trkpt lat="44.79972" lon="4.49832">
        <ele>637.39</ele>
        <time>2019-02-07T09:54:52Z</time>
      </trkpt>
      <trkpt lat="44.79988" lon="4.49838">
        <ele>637.42</ele>
        <time>2019-02-07T09:55:13Z</time>
      </trkpt>
      <trkpt lat="44.79988" lon="4.49839">
        <ele>637.5</ele>
        <time>2019-02-07T09:55:28Z</time>
      </trkpt>
      <trkpt lat="44.79989" lon="4.4984">
        <ele>637.28</ele>
        <time>2019-02-07T09:55:30Z</time>
      </trkpt>
      <trkpt lat="44.79995" lon="4.4984">
        <ele>637.25</ele>
        <time>2019-02-07T09:55:35Z</time>
      </trkpt>
      <trkpt lat="44.80005" lon="4.49842">
        <ele>637.01</ele>
        <time>2019-02-07T09:55:45Z</time>
      </trkpt>
      <trkpt lat="44.80007" lon="4.49842">
        <ele>637.03</ele>
        <time>2019-02-07T09:55:47Z</time>
      </trkpt>
      <trkpt lat="44.80026" lon="4.49853">
        <ele>636.79</ele>
        <time>2019-02-07T09:56:06Z</time>
      </trkpt>
      <trkpt lat="44.80042" lon="4.49866">
        <ele>637.02</ele>
        <time>2019-02-07T09:56:24Z</time>
      </trkpt>
      <trkpt lat="44.80058" lon="4.49879">
        <ele>637.01</ele>
        <time>2019-02-07T09:56:41Z</time>
      </trkpt>
      <trkpt lat="44.80069" lon="4.49885">
        <ele>637.08</ele>
        <time>2019-02-07T09:56:54Z</time>
      </trkpt>
      <trkpt lat="44.80079" lon="4.49899">
        <ele>636.59</ele>
        <time>2019-02-07T09:57:08Z</time>
      </trkpt>
      <trkpt lat="44.80084" lon="4.4991">
        <ele>635.26</ele>
        <time>2019-02-07T09:57:17Z</time>
      </trkpt>
      <trkpt lat="44.80084" lon="4.49918">
        <ele>633.84</ele>
        <time>2019-02-07T09:57:24Z</time>
      </trkpt>
      <trkpt lat="44.80087" lon="4.49927">
        <ele>634.08</ele>
        <time>2019-02-07T09:57:33Z</time>
      </trkpt>
      <trkpt lat="44.8009" lon="4.49932">
        <ele>634.36</ele>
        <time>2019-02-07T09:57:37Z</time>
      </trkpt>
      <trkpt lat="44.80104" lon="4.49955">
        <ele>635.8</ele>
        <time>2019-02-07T09:57:56Z</time>
      </trkpt>
      <trkpt lat="44.80114" lon="4.49965">
        <ele>636.65</ele>
        <time>2019-02-07T09:58:06Z</time>
      </trkpt>
      <trkpt lat="44.80119" lon="4.49967">
        <ele>636.62</ele>
        <time>2019-02-07T09:58:10Z</time>
      </trkpt>
      <trkpt lat="44.80126" lon="4.4997">
        <ele>636.69</ele>
        <time>2019-02-07T09:58:16Z</time>
      </trkpt>
      <trkpt lat="44.80127" lon="4.49968">
        <ele>636.98</ele>
        <time>2019-02-07T09:58:18Z</time>
      </trkpt>
      <trkpt lat="44.80128" lon="4.49961">
        <ele>637.85</ele>
        <time>2019-02-07T09:58:23Z</time>
      </trkpt>
      <trkpt lat="44.80128" lon="4.49957">
        <ele>638.31</ele>
        <time>2019-02-07T09:58:26Z</time>
      </trkpt>
      <trkpt lat="44.80137" lon="4.49939">
        <ele>640.04</ele>
        <time>2019-02-07T09:58:42Z</time>
      </trkpt>
      <trkpt lat="44.80137" lon="4.49917">
        <ele>640.95</ele>
        <time>2019-02-07T09:58:57Z</time>
      </trkpt>
      <trkpt lat="44.80135" lon="4.49904">
        <ele>641.26</ele>
        <time>2019-02-07T09:59:06Z</time>
      </trkpt>
      <trkpt lat="44.80128" lon="4.49887">
        <ele>642.78</ele>
        <time>2019-02-07T09:59:21Z</time>
      </trkpt>
      <trkpt lat="44.8012" lon="4.4987">
        <ele>644.33</ele>
        <time>2019-02-07T09:59:36Z</time>
      </trkpt>
      <trkpt lat="44.80113" lon="4.49846">
        <ele>646.4</ele>
        <time>2019-02-07T09:59:55Z</time>
      </trkpt>
      <trkpt lat="44.80107" lon="4.49827">
        <ele>647.93</ele>
        <time>2019-02-07T10:00:11Z</time>
      </trkpt>
      <trkpt lat="44.80102" lon="4.49819">
        <ele>649.53</ele>
        <time>2019-02-07T10:00:25Z</time>
      </trkpt>
      <trkpt lat="44.80093" lon="4.49815">
        <ele>650.91</ele>
        <time>2019-02-07T10:00:41Z</time>
      </trkpt>
      <trkpt lat="44.80087" lon="4.49804">
        <ele>652.49</ele>
        <time>2019-02-07T10:00:56Z</time>
      </trkpt>
      <trkpt lat="44.80077" lon="4.4979">
        <ele>655.27</ele>
        <time>2019-02-07T10:01:13Z</time>
      </trkpt>
      <trkpt lat="44.80072" lon="4.49775">
        <ele>657.65</ele>
        <time>2019-02-07T10:01:29Z</time>
      </trkpt>
      <trkpt lat="44.80069" lon="4.49763">
        <ele>659.08</ele>
        <time>2019-02-07T10:01:41Z</time>
      </trkpt>
      <trkpt lat="44.80065" lon="4.4975">
        <ele>660.53</ele>
        <time>2019-02-07T10:01:55Z</time>
      </trkpt>
      <trkpt lat="44.80058" lon="4.49734">
        <ele>662.32</ele>
        <time>2019-02-07T10:02:10Z</time>
      </trkpt>
      <trkpt lat="44.80054" lon="4.49721">
        <ele>663.87</ele>
        <time>2019-02-07T10:02:21Z</time>
      </trkpt>
      <trkpt lat="44.8005" lon="4.49707">
        <ele>665.54</ele>
        <time>2019-02-07T10:02:33Z</time>
      </trkpt>
      <trkpt lat="44.80051" lon="4.4969">
        <ele>667.67</ele>
        <time>2019-02-07T10:02:49Z</time>
      </trkpt>
      <trkpt lat="44.80051" lon="4.49678">
        <ele>668.86</ele>
        <time>2019-02-07T10:03:00Z</time>
      </trkpt>
      <trkpt lat="44.80047" lon="4.49665">
        <ele>670.37</ele>
        <time>2019-02-07T10:03:13Z</time>
      </trkpt>
      <trkpt lat="44.80043" lon="4.49644">
        <ele>672.67</ele>
        <time>2019-02-07T10:03:31Z</time>
      </trkpt>
      <trkpt lat="44.80036" lon="4.49629">
        <ele>674.3</ele>
        <time>2019-02-07T10:03:45Z</time>
      </trkpt>
      <trkpt lat="44.80032" lon="4.49608">
        <ele>677.02</ele>
        <time>2019-02-07T10:04:05Z</time>
      </trkpt>
      <trkpt lat="44.80028" lon="4.49594">
        <ele>677.91</ele>
        <time>2019-02-07T10:04:30Z</time>
      </trkpt>
      <trkpt lat="44.80022" lon="4.49587">
        <ele>678.04</ele>
        <time>2019-02-07T10:04:56Z</time>
      </trkpt>
      <trkpt lat="44.8002" lon="4.49579">
        <ele>679.56</ele>
        <time>2019-02-07T10:05:18Z</time>
      </trkpt>
      <trkpt lat="44.80019" lon="4.4957">
        <ele>680.67</ele>
        <time>2019-02-07T10:05:44Z</time>
      </trkpt>
      <trkpt lat="44.80015" lon="4.49552">
        <ele>682.59</ele>
        <time>2019-02-07T10:06:05Z</time>
      </trkpt>
      <trkpt lat="44.80013" lon="4.49533">
        <ele>684.99</ele>
        <time>2019-02-07T10:06:24Z</time>
      </trkpt>
      <trkpt lat="44.8001" lon="4.49521">
        <ele>686.24</ele>
        <time>2019-02-07T10:06:33Z</time>
      </trkpt>
      <trkpt lat="44.80004" lon="4.49505">
        <ele>688.37</ele>
        <time>2019-02-07T10:06:49Z</time>
      </trkpt>
      <trkpt lat="44.8" lon="4.49501">
        <ele>689.01</ele>
        <time>2019-02-07T10:06:54Z</time>
      </trkpt>
      <trkpt lat="44.79991" lon="4.49489">
        <ele>690.58</ele>
        <time>2019-02-07T10:07:11Z</time>
      </trkpt>
      <trkpt lat="44.79981" lon="4.49478">
        <ele>692.48</ele>
        <time>2019-02-07T10:07:30Z</time>
      </trkpt>
      <trkpt lat="44.79968" lon="4.49464">
        <ele>695.2</ele>
        <time>2019-02-07T10:07:51Z</time>
      </trkpt>
      <trkpt lat="44.79954" lon="4.49447">
        <ele>697.43</ele>
        <time>2019-02-07T10:08:10Z</time>
      </trkpt>
      <trkpt lat="44.79941" lon="4.49435">
        <ele>698.64</ele>
        <time>2019-02-07T10:08:28Z</time>
      </trkpt>
      <trkpt lat="44.79926" lon="4.49417">
        <ele>701.83</ele>
        <time>2019-02-07T10:08:52Z</time>
      </trkpt>
      <trkpt lat="44.79914" lon="4.49402">
        <ele>704.18</ele>
        <time>2019-02-07T10:09:12Z</time>
      </trkpt>
      <trkpt lat="44.79901" lon="4.49389">
        <ele>706.71</ele>
        <time>2019-02-07T10:09:33Z</time>
      </trkpt>
      <trkpt lat="44.79885" lon="4.49373">
        <ele>709.57</ele>
        <time>2019-02-07T10:09:56Z</time>
      </trkpt>
      <trkpt lat="44.79876" lon="4.49359">
        <ele>710.75</ele>
        <time>2019-02-07T10:10:13Z</time>
      </trkpt>
      <trkpt lat="44.79868" lon="4.49346">
        <ele>712.23</ele>
        <time>2019-02-07T10:10:30Z</time>
      </trkpt>
      <trkpt lat="44.79866" lon="4.49343">
        <ele>712.72</ele>
        <time>2019-02-07T10:10:34Z</time>
      </trkpt>
      <trkpt lat="44.79863" lon="4.4934">
        <ele>712.9</ele>
        <time>2019-02-07T10:10:37Z</time>
      </trkpt>
      <trkpt lat="44.79856" lon="4.49328">
        <ele>713.62</ele>
        <time>2019-02-07T10:10:48Z</time>
      </trkpt>
      <trkpt lat="44.7985" lon="4.49316">
        <ele>714.59</ele>
        <time>2019-02-07T10:11:02Z</time>
      </trkpt>
      <trkpt lat="44.79839" lon="4.49294">
        <ele>716.51</ele>
        <time>2019-02-07T10:11:22Z</time>
      </trkpt>
      <trkpt lat="44.79831" lon="4.49276">
        <ele>717.82</ele>
        <time>2019-02-07T10:11:39Z</time>
      </trkpt>
      <trkpt lat="44.79822" lon="4.4926">
        <ele>719.07</ele>
        <time>2019-02-07T10:11:55Z</time>
      </trkpt>
      <trkpt lat="44.7981" lon="4.49243">
        <ele>720.79</ele>
        <time>2019-02-07T10:12:14Z</time>
      </trkpt>
      <trkpt lat="44.79796" lon="4.49224">
        <ele>722.56</ele>
        <time>2019-02-07T10:12:36Z</time>
      </trkpt>
      <trkpt lat="44.79779" lon="4.49203">
        <ele>724.63</ele>
        <time>2019-02-07T10:13:00Z</time>
      </trkpt>
      <trkpt lat="44.7976" lon="4.4919">
        <ele>725.58</ele>
        <time>2019-02-07T10:13:18Z</time>
      </trkpt>
      <trkpt lat="44.79757" lon="4.49188">
        <ele>725.73</ele>
        <time>2019-02-07T10:13:22Z</time>
      </trkpt>
      <trkpt lat="44.79741" lon="4.49173">
        <ele>727.83</ele>
        <time>2019-02-07T10:13:43Z</time>
      </trkpt>
      <trkpt lat="44.79739" lon="4.49169">
        <ele>728.34</ele>
        <time>2019-02-07T10:13:47Z</time>
      </trkpt>
      <trkpt lat="44.79727" lon="4.49151">
        <ele>729.51</ele>
        <time>2019-02-07T10:14:05Z</time>
      </trkpt>
      <trkpt lat="44.79712" lon="4.49137">
        <ele>731.23</ele>
        <time>2019-02-07T10:14:23Z</time>
      </trkpt>
      <trkpt lat="44.797" lon="4.49125">
        <ele>732.68</ele>
        <time>2019-02-07T10:14:40Z</time>
      </trkpt>
      <trkpt lat="44.79689" lon="4.49112">
        <ele>734.44</ele>
        <time>2019-02-07T10:14:57Z</time>
      </trkpt>
      <trkpt lat="44.79676" lon="4.49096">
        <ele>736.71</ele>
        <time>2019-02-07T10:15:16Z</time>
      </trkpt>
      <trkpt lat="44.79664" lon="4.49083">
        <ele>739.21</ele>
        <time>2019-02-07T10:15:32Z</time>
      </trkpt>
      <trkpt lat="44.79659" lon="4.49074">
        <ele>740.8</ele>
        <time>2019-02-07T10:15:48Z</time>
      </trkpt>
      <trkpt lat="44.7966" lon="4.49074">
        <ele>740.47</ele>
        <time>2019-02-07T10:16:11Z</time>
      </trkpt>
      <trkpt lat="44.7966" lon="4.49074">
        <ele>740.64</ele>
        <time>2019-02-07T10:16:51Z</time>
      </trkpt>
      <trkpt lat="44.79655" lon="4.49076">
        <ele>741.26</ele>
        <time>2019-02-07T10:17:11Z</time>
      </trkpt>
      <trkpt lat="44.79651" lon="4.49074">
        <ele>741.44</ele>
        <time>2019-02-07T10:17:44Z</time>
      </trkpt>
      <trkpt lat="44.7964" lon="4.49061">
        <ele>744.13</ele>
        <time>2019-02-07T10:18:02Z</time>
      </trkpt>
      <trkpt lat="44.79628" lon="4.49048">
        <ele>746.56</ele>
        <time>2019-02-07T10:18:19Z</time>
      </trkpt>
      <trkpt lat="44.79615" lon="4.49041">
        <ele>748.1</ele>
        <time>2019-02-07T10:18:36Z</time>
      </trkpt>
      <trkpt lat="44.79603" lon="4.49037">
        <ele>749.83</ele>
        <time>2019-02-07T10:18:53Z</time>
      </trkpt>
      <trkpt lat="44.79589" lon="4.49033">
        <ele>752.7</ele>
        <time>2019-02-07T10:19:15Z</time>
      </trkpt>
      <trkpt lat="44.79582" lon="4.49023">
        <ele>754.87</ele>
        <time>2019-02-07T10:19:33Z</time>
      </trkpt>
      <trkpt lat="44.79575" lon="4.49009">
        <ele>757.19</ele>
        <time>2019-02-07T10:19:51Z</time>
      </trkpt>
      <trkpt lat="44.79563" lon="4.49011">
        <ele>759.36</ele>
        <time>2019-02-07T10:20:09Z</time>
      </trkpt>
      <trkpt lat="44.79554" lon="4.49019">
        <ele>761.18</ele>
        <time>2019-02-07T10:20:26Z</time>
      </trkpt>
      <trkpt lat="44.79546" lon="4.49015">
        <ele>764.24</ele>
        <time>2019-02-07T10:20:44Z</time>
      </trkpt>
      <trkpt lat="44.79536" lon="4.49011">
        <ele>767.34</ele>
        <time>2019-02-07T10:21:00Z</time>
      </trkpt>
      <trkpt lat="44.79521" lon="4.4901">
        <ele>769.31</ele>
        <time>2019-02-07T10:21:20Z</time>
      </trkpt>
      <trkpt lat="44.79511" lon="4.49013">
        <ele>770.82</ele>
        <time>2019-02-07T10:21:34Z</time>
      </trkpt>
      <trkpt lat="44.79493" lon="4.49016">
        <ele>774.13</ele>
        <time>2019-02-07T10:21:53Z</time>
      </trkpt>
      <trkpt lat="44.79479" lon="4.49014">
        <ele>775.85</ele>
        <time>2019-02-07T10:22:09Z</time>
      </trkpt>
      <trkpt lat="44.79465" lon="4.49016">
        <ele>777.82</ele>
        <time>2019-02-07T10:22:25Z</time>
      </trkpt>
      <trkpt lat="44.79459" lon="4.4902">
        <ele>778.23</ele>
        <time>2019-02-07T10:22:41Z</time>
      </trkpt>
      <trkpt lat="44.79454" lon="4.49023">
        <ele>779.56</ele>
        <time>2019-02-07T10:22:57Z</time>
      </trkpt>
      <trkpt lat="44.79443" lon="4.49031">
        <ele>781.96</ele>
        <time>2019-02-07T10:23:17Z</time>
      </trkpt>
      <trkpt lat="44.79435" lon="4.49036">
        <ele>783.28</ele>
        <time>2019-02-07T10:23:33Z</time>
      </trkpt>
      <trkpt lat="44.79424" lon="4.49044">
        <ele>785.39</ele>
        <time>2019-02-07T10:23:53Z</time>
      </trkpt>
      <trkpt lat="44.79417" lon="4.49051">
        <ele>787.65</ele>
        <time>2019-02-07T10:24:09Z</time>
      </trkpt>
      <trkpt lat="44.7941" lon="4.49059">
        <ele>788.7</ele>
        <time>2019-02-07T10:24:25Z</time>
      </trkpt>
      <trkpt lat="44.79399" lon="4.4907">
        <ele>790.81</ele>
        <time>2019-02-07T10:24:44Z</time>
      </trkpt>
      <trkpt lat="44.79388" lon="4.4908">
        <ele>792.79</ele>
        <time>2019-02-07T10:25:02Z</time>
      </trkpt>
      <trkpt lat="44.79377" lon="4.49091">
        <ele>795.26</ele>
        <time>2019-02-07T10:25:20Z</time>
      </trkpt>
      <trkpt lat="44.79366" lon="4.49105">
        <ele>797.22</ele>
        <time>2019-02-07T10:25:39Z</time>
      </trkpt>
      <trkpt lat="44.79355" lon="4.49118">
        <ele>799.78</ele>
        <time>2019-02-07T10:25:57Z</time>
      </trkpt>
      <trkpt lat="44.79346" lon="4.49128">
        <ele>801.44</ele>
        <time>2019-02-07T10:26:11Z</time>
      </trkpt>
      <trkpt lat="44.79335" lon="4.4914">
        <ele>802.87</ele>
        <time>2019-02-07T10:26:29Z</time>
      </trkpt>
      <trkpt lat="44.79323" lon="4.4915">
        <ele>804.88</ele>
        <time>2019-02-07T10:26:44Z</time>
      </trkpt>
      <trkpt lat="44.79322" lon="4.49155">
        <ele>805.53</ele>
        <time>2019-02-07T10:26:49Z</time>
      </trkpt>
      <trkpt lat="44.79324" lon="4.49169">
        <ele>806.32</ele>
        <time>2019-02-07T10:27:05Z</time>
      </trkpt>
      <trkpt lat="44.79335" lon="4.49183">
        <ele>807.41</ele>
        <time>2019-02-07T10:27:22Z</time>
      </trkpt>
      <trkpt lat="44.79347" lon="4.49197">
        <ele>809</ele>
        <time>2019-02-07T10:27:41Z</time>
      </trkpt>
      <trkpt lat="44.79348" lon="4.49199">
        <ele>809.22</ele>
        <time>2019-02-07T10:27:43Z</time>
      </trkpt>
      <trkpt lat="44.79355" lon="4.49212">
        <ele>810.46</ele>
        <time>2019-02-07T10:28:01Z</time>
      </trkpt>
      <trkpt lat="44.79362" lon="4.49221">
        <ele>811.52</ele>
        <time>2019-02-07T10:28:17Z</time>
      </trkpt>
      <trkpt lat="44.79368" lon="4.49229">
        <ele>812.4</ele>
        <time>2019-02-07T10:28:33Z</time>
      </trkpt>
      <trkpt lat="44.79374" lon="4.49236">
        <ele>813.34</ele>
        <time>2019-02-07T10:28:42Z</time>
      </trkpt>
      <trkpt lat="44.79381" lon="4.49251">
        <ele>815.04</ele>
        <time>2019-02-07T10:29:01Z</time>
      </trkpt>
      <trkpt lat="44.79385" lon="4.4926">
        <ele>816.23</ele>
        <time>2019-02-07T10:29:15Z</time>
      </trkpt>
      <trkpt lat="44.79387" lon="4.49272">
        <ele>817.78</ele>
        <time>2019-02-07T10:29:33Z</time>
      </trkpt>
      <trkpt lat="44.79384" lon="4.49288">
        <ele>819.1</ele>
        <time>2019-02-07T10:29:50Z</time>
      </trkpt>
      <trkpt lat="44.79383" lon="4.49297">
        <ele>820.1</ele>
        <time>2019-02-07T10:30:09Z</time>
      </trkpt>
      <trkpt lat="44.7938" lon="4.49308">
        <ele>821.5</ele>
        <time>2019-02-07T10:30:23Z</time>
      </trkpt>
      <trkpt lat="44.79377" lon="4.49318">
        <ele>822.52</ele>
        <time>2019-02-07T10:30:38Z</time>
      </trkpt>
      <trkpt lat="44.79374" lon="4.49325">
        <ele>824.35</ele>
        <time>2019-02-07T10:30:54Z</time>
      </trkpt>
      <trkpt lat="44.7937" lon="4.49336">
        <ele>825.65</ele>
        <time>2019-02-07T10:31:09Z</time>
      </trkpt>
      <trkpt lat="44.79364" lon="4.49347">
        <ele>827.45</ele>
        <time>2019-02-07T10:31:27Z</time>
      </trkpt>
      <trkpt lat="44.7936" lon="4.49358">
        <ele>829.07</ele>
        <time>2019-02-07T10:31:44Z</time>
      </trkpt>
      <trkpt lat="44.79354" lon="4.49371">
        <ele>831.08</ele>
        <time>2019-02-07T10:32:05Z</time>
      </trkpt>
      <trkpt lat="44.79349" lon="4.49382">
        <ele>832.68</ele>
        <time>2019-02-07T10:32:20Z</time>
      </trkpt>
      <trkpt lat="44.79342" lon="4.49395">
        <ele>834.62</ele>
        <time>2019-02-07T10:32:38Z</time>
      </trkpt>
      <trkpt lat="44.79334" lon="4.49408">
        <ele>837.16</ele>
        <time>2019-02-07T10:32:57Z</time>
      </trkpt>
      <trkpt lat="44.79326" lon="4.49419">
        <ele>839.09</ele>
        <time>2019-02-07T10:33:16Z</time>
      </trkpt>
      <trkpt lat="44.79317" lon="4.49432">
        <ele>841.93</ele>
        <time>2019-02-07T10:33:37Z</time>
      </trkpt>
      <trkpt lat="44.79312" lon="4.49442">
        <ele>843.41</ele>
        <time>2019-02-07T10:33:53Z</time>
      </trkpt>
      <trkpt lat="44.79308" lon="4.49456">
        <ele>845.04</ele>
        <time>2019-02-07T10:34:12Z</time>
      </trkpt>
      <trkpt lat="44.79306" lon="4.49474">
        <ele>847.13</ele>
        <time>2019-02-07T10:34:34Z</time>
      </trkpt>
      <trkpt lat="44.79303" lon="4.49489">
        <ele>849.29</ele>
        <time>2019-02-07T10:34:53Z</time>
      </trkpt>
      <trkpt lat="44.79302" lon="4.49499">
        <ele>850.57</ele>
        <time>2019-02-07T10:35:14Z</time>
      </trkpt>
      <trkpt lat="44.79299" lon="4.49516">
        <ele>852.84</ele>
        <time>2019-02-07T10:35:34Z</time>
      </trkpt>
      <trkpt lat="44.79296" lon="4.49532">
        <ele>854.78</ele>
        <time>2019-02-07T10:35:52Z</time>
      </trkpt>
      <trkpt lat="44.7929" lon="4.49538">
        <ele>855.97</ele>
        <time>2019-02-07T10:36:06Z</time>
      </trkpt>
      <trkpt lat="44.79287" lon="4.49539">
        <ele>856.37</ele>
        <time>2019-02-07T10:36:23Z</time>
      </trkpt>
      <trkpt lat="44.79287" lon="4.49539">
        <ele>855.5</ele>
        <time>2019-02-07T10:36:25Z</time>
      </trkpt>
      <trkpt lat="44.79289" lon="4.4954">
        <ele>855.55</ele>
        <time>2019-02-07T10:37:02Z</time>
      </trkpt>
      <trkpt lat="44.79289" lon="4.4954">
        <ele>856.59</ele>
        <time>2019-02-07T10:37:41Z</time>
      </trkpt>
      <trkpt lat="44.79289" lon="4.4954">
        <ele>856.9</ele>
        <time>2019-02-07T10:38:06Z</time>
      </trkpt>
      <trkpt lat="44.79288" lon="4.49539">
        <ele>856.14</ele>
        <time>2019-02-07T10:38:35Z</time>
      </trkpt>
      <trkpt lat="44.79287" lon="4.49539">
        <ele>856.6</ele>
        <time>2019-02-07T10:39:07Z</time>
      </trkpt>
      <trkpt lat="44.79287" lon="4.49541">
        <ele>856.36</ele>
        <time>2019-02-07T10:39:54Z</time>
      </trkpt>
      <trkpt lat="44.79286" lon="4.49541">
        <ele>856.92</ele>
        <time>2019-02-07T10:40:41Z</time>
      </trkpt>
      <trkpt lat="44.79286" lon="4.4954">
        <ele>856.52</ele>
        <time>2019-02-07T10:41:33Z</time>
      </trkpt>
      <trkpt lat="44.79286" lon="4.49539">
        <ele>856.71</ele>
        <time>2019-02-07T10:42:20Z</time>
      </trkpt>
      <trkpt lat="44.79286" lon="4.4954">
        <ele>856.5</ele>
        <time>2019-02-07T10:43:04Z</time>
      </trkpt>
      <trkpt lat="44.79286" lon="4.4954">
        <ele>856.77</ele>
        <time>2019-02-07T10:43:55Z</time>
      </trkpt>
      <trkpt lat="44.79286" lon="4.49539">
        <ele>856.83</ele>
        <time>2019-02-07T10:44:34Z</time>
      </trkpt>
      <trkpt lat="44.79286" lon="4.49539">
        <ele>857.6</ele>
        <time>2019-02-07T10:45:00Z</time>
      </trkpt>
      <trkpt lat="44.79286" lon="4.49539">
        <ele>857.35</ele>
        <time>2019-02-07T10:45:27Z</time>
      </trkpt>
      <trkpt lat="44.79286" lon="4.49538">
        <ele>856.54</ele>
        <time>2019-02-07T10:46:01Z</time>
      </trkpt>
      <trkpt lat="44.79285" lon="4.49538">
        <ele>857.06</ele>
        <time>2019-02-07T10:46:38Z</time>
      </trkpt>
      <trkpt lat="44.79285" lon="4.49538">
        <ele>857.09</ele>
        <time>2019-02-07T10:47:05Z</time>
      </trkpt>
      <trkpt lat="44.79285" lon="4.49537">
        <ele>856.78</ele>
        <time>2019-02-07T10:47:30Z</time>
      </trkpt>
      <trkpt lat="44.79282" lon="4.49522">
        <ele>858.25</ele>
        <time>2019-02-07T10:47:47Z</time>
      </trkpt>
      <trkpt lat="44.79278" lon="4.49505">
        <ele>859.6</ele>
        <time>2019-02-07T10:48:04Z</time>
      </trkpt>
      <trkpt lat="44.79276" lon="4.49499">
        <ele>860.24</ele>
        <time>2019-02-07T10:48:09Z</time>
      </trkpt>
      <trkpt lat="44.79271" lon="4.49481">
        <ele>861.41</ele>
        <time>2019-02-07T10:48:24Z</time>
      </trkpt>
      <trkpt lat="44.79269" lon="4.49465">
        <ele>862.84</ele>
        <time>2019-02-07T10:48:37Z</time>
      </trkpt>
      <trkpt lat="44.79268" lon="4.49447">
        <ele>863.94</ele>
        <time>2019-02-07T10:48:53Z</time>
      </trkpt>
      <trkpt lat="44.79269" lon="4.49431">
        <ele>865.66</ele>
        <time>2019-02-07T10:49:09Z</time>
      </trkpt>
      <trkpt lat="44.79269" lon="4.49417">
        <ele>866.82</ele>
        <time>2019-02-07T10:49:22Z</time>
      </trkpt>
      <trkpt lat="44.79269" lon="4.49401">
        <ele>867.66</ele>
        <time>2019-02-07T10:49:36Z</time>
      </trkpt>
      <trkpt lat="44.79266" lon="4.49384">
        <ele>869.21</ele>
        <time>2019-02-07T10:49:53Z</time>
      </trkpt>
      <trkpt lat="44.7926" lon="4.49368">
        <ele>871.38</ele>
        <time>2019-02-07T10:50:09Z</time>
      </trkpt>
      <trkpt lat="44.79259" lon="4.49365">
        <ele>871.31</ele>
        <time>2019-02-07T10:50:12Z</time>
      </trkpt>
      <trkpt lat="44.79251" lon="4.49347">
        <ele>873.18</ele>
        <time>2019-02-07T10:50:30Z</time>
      </trkpt>
      <trkpt lat="44.79246" lon="4.4935">
        <ele>874.11</ele>
        <time>2019-02-07T10:50:44Z</time>
      </trkpt>
      <trkpt lat="44.79248" lon="4.49364">
        <ele>876.09</ele>
        <time>2019-02-07T10:50:58Z</time>
      </trkpt>
      <trkpt lat="44.79245" lon="4.49381">
        <ele>877.97</ele>
        <time>2019-02-07T10:51:14Z</time>
      </trkpt>
      <trkpt lat="44.79242" lon="4.49398">
        <ele>880.19</ele>
        <time>2019-02-07T10:51:31Z</time>
      </trkpt>
      <trkpt lat="44.79238" lon="4.49411">
        <ele>881.63</ele>
        <time>2019-02-07T10:51:45Z</time>
      </trkpt>
      <trkpt lat="44.79232" lon="4.49424">
        <ele>883.25</ele>
        <time>2019-02-07T10:52:00Z</time>
      </trkpt>
      <trkpt lat="44.79226" lon="4.49438">
        <ele>884.81</ele>
        <time>2019-02-07T10:52:15Z</time>
      </trkpt>
      <trkpt lat="44.79221" lon="4.49455">
        <ele>886.97</ele>
        <time>2019-02-07T10:52:32Z</time>
      </trkpt>
      <trkpt lat="44.79215" lon="4.49472">
        <ele>889.02</ele>
        <time>2019-02-07T10:52:49Z</time>
      </trkpt>
      <trkpt lat="44.7921" lon="4.49489">
        <ele>890.64</ele>
        <time>2019-02-07T10:53:05Z</time>
      </trkpt>
      <trkpt lat="44.79205" lon="4.49508">
        <ele>892.93</ele>
        <time>2019-02-07T10:53:26Z</time>
      </trkpt>
      <trkpt lat="44.79203" lon="4.49528">
        <ele>895.42</ele>
        <time>2019-02-07T10:53:45Z</time>
      </trkpt>
      <trkpt lat="44.792" lon="4.49544">
        <ele>896.94</ele>
        <time>2019-02-07T10:54:01Z</time>
      </trkpt>
      <trkpt lat="44.79199" lon="4.49559">
        <ele>898.1</ele>
        <time>2019-02-07T10:54:15Z</time>
      </trkpt>
      <trkpt lat="44.79198" lon="4.49579">
        <ele>899.26</ele>
        <time>2019-02-07T10:54:33Z</time>
      </trkpt>
      <trkpt lat="44.79196" lon="4.49596">
        <ele>901.43</ele>
        <time>2019-02-07T10:54:49Z</time>
      </trkpt>
      <trkpt lat="44.79196" lon="4.49613">
        <ele>902.93</ele>
        <time>2019-02-07T10:55:06Z</time>
      </trkpt>
      <trkpt lat="44.79196" lon="4.49629">
        <ele>904.66</ele>
        <time>2019-02-07T10:55:21Z</time>
      </trkpt>
      <trkpt lat="44.79196" lon="4.4965">
        <ele>906.73</ele>
        <time>2019-02-07T10:55:40Z</time>
      </trkpt>
      <trkpt lat="44.79196" lon="4.49671">
        <ele>908.1</ele>
        <time>2019-02-07T10:55:59Z</time>
      </trkpt>
      <trkpt lat="44.79196" lon="4.49689">
        <ele>909.84</ele>
        <time>2019-02-07T10:56:16Z</time>
      </trkpt>
      <trkpt lat="44.79196" lon="4.49705">
        <ele>911.6</ele>
        <time>2019-02-07T10:56:32Z</time>
      </trkpt>
      <trkpt lat="44.79191" lon="4.49718">
        <ele>913.69</ele>
        <time>2019-02-07T10:56:46Z</time>
      </trkpt>
      <trkpt lat="44.79191" lon="4.49729">
        <ele>914.58</ele>
        <time>2019-02-07T10:57:02Z</time>
      </trkpt>
      <trkpt lat="44.79191" lon="4.4973">
        <ele>914.67</ele>
        <time>2019-02-07T10:57:34Z</time>
      </trkpt>
      <trkpt lat="44.79192" lon="4.4973">
        <ele>914.8</ele>
        <time>2019-02-07T10:58:05Z</time>
      </trkpt>
      <trkpt lat="44.79191" lon="4.4973">
        <ele>913.6</ele>
        <time>2019-02-07T10:58:29Z</time>
      </trkpt>
      <trkpt lat="44.79191" lon="4.49729">
        <ele>915.32</ele>
        <time>2019-02-07T10:58:41Z</time>
      </trkpt>
      <trkpt lat="44.79186" lon="4.49726">
        <ele>915.3</ele>
        <time>2019-02-07T10:59:10Z</time>
      </trkpt>
      <trkpt lat="44.79183" lon="4.49725">
        <ele>915.3</ele>
        <time>2019-02-07T10:59:14Z</time>
      </trkpt>
      <trkpt lat="44.79165" lon="4.49724">
        <ele>916.45</ele>
        <time>2019-02-07T10:59:32Z</time>
      </trkpt>
      <trkpt lat="44.7915" lon="4.49722">
        <ele>917.44</ele>
        <time>2019-02-07T10:59:51Z</time>
      </trkpt>
      <trkpt lat="44.79149" lon="4.49723">
        <ele>917.31</ele>
        <time>2019-02-07T11:00:01Z</time>
      </trkpt>
      <trkpt lat="44.79133" lon="4.49718">
        <ele>919.58</ele>
        <time>2019-02-07T11:00:18Z</time>
      </trkpt>
      <trkpt lat="44.79122" lon="4.49713">
        <ele>921.53</ele>
        <time>2019-02-07T11:00:32Z</time>
      </trkpt>
      <trkpt lat="44.79115" lon="4.49705">
        <ele>923.34</ele>
        <time>2019-02-07T11:00:46Z</time>
      </trkpt>
      <trkpt lat="44.79113" lon="4.49704">
        <ele>923.07</ele>
        <time>2019-02-07T11:00:52Z</time>
      </trkpt>
      <trkpt lat="44.79103" lon="4.49695">
        <ele>925.19</ele>
        <time>2019-02-07T11:01:07Z</time>
      </trkpt>
      <trkpt lat="44.79094" lon="4.49697">
        <ele>925.27</ele>
        <time>2019-02-07T11:01:21Z</time>
      </trkpt>
      <trkpt lat="44.79086" lon="4.497">
        <ele>925.08</ele>
        <time>2019-02-07T11:01:35Z</time>
      </trkpt>
      <trkpt lat="44.79082" lon="4.49701">
        <ele>925.21</ele>
        <time>2019-02-07T11:01:40Z</time>
      </trkpt>
      <trkpt lat="44.79075" lon="4.497">
        <ele>925.55</ele>
        <time>2019-02-07T11:01:48Z</time>
      </trkpt>
      <trkpt lat="44.79059" lon="4.49702">
        <ele>925.6</ele>
        <time>2019-02-07T11:02:04Z</time>
      </trkpt>
      <trkpt lat="44.79041" lon="4.49702">
        <ele>928.74</ele>
        <time>2019-02-07T11:02:22Z</time>
      </trkpt>
      <trkpt lat="44.79025" lon="4.497">
        <ele>931.32</ele>
        <time>2019-02-07T11:02:39Z</time>
      </trkpt>
      <trkpt lat="44.79012" lon="4.49691">
        <ele>933.98</ele>
        <time>2019-02-07T11:02:56Z</time>
      </trkpt>
      <trkpt lat="44.79" lon="4.49682">
        <ele>936.52</ele>
        <time>2019-02-07T11:03:13Z</time>
      </trkpt>
      <trkpt lat="44.78989" lon="4.49672">
        <ele>938.6</ele>
        <time>2019-02-07T11:03:34Z</time>
      </trkpt>
      <trkpt lat="44.7898" lon="4.4967">
        <ele>940.28</ele>
        <time>2019-02-07T11:03:47Z</time>
      </trkpt>
      <trkpt lat="44.78979" lon="4.49663">
        <ele>940.94</ele>
        <time>2019-02-07T11:03:54Z</time>
      </trkpt>
      <trkpt lat="44.78973" lon="4.49652">
        <ele>942.29</ele>
        <time>2019-02-07T11:04:09Z</time>
      </trkpt>
      <trkpt lat="44.78965" lon="4.4964">
        <ele>944.37</ele>
        <time>2019-02-07T11:04:24Z</time>
      </trkpt>
      <trkpt lat="44.78958" lon="4.4963">
        <ele>946.35</ele>
        <time>2019-02-07T11:04:40Z</time>
      </trkpt>
      <trkpt lat="44.78954" lon="4.49623">
        <ele>947.32</ele>
        <time>2019-02-07T11:04:54Z</time>
      </trkpt>
      <trkpt lat="44.78951" lon="4.49609">
        <ele>948.77</ele>
        <time>2019-02-07T11:05:10Z</time>
      </trkpt>
      <trkpt lat="44.78951" lon="4.496">
        <ele>950.12</ele>
        <time>2019-02-07T11:05:26Z</time>
      </trkpt>
      <trkpt lat="44.78946" lon="4.49589">
        <ele>950.11</ele>
        <time>2019-02-07T11:05:41Z</time>
      </trkpt>
      <trkpt lat="44.78945" lon="4.49587">
        <ele>952.19</ele>
        <time>2019-02-07T11:05:43Z</time>
      </trkpt>
      <trkpt lat="44.78938" lon="4.49574">
        <ele>954.41</ele>
        <time>2019-02-07T11:05:59Z</time>
      </trkpt>
      <trkpt lat="44.7894" lon="4.49561">
        <ele>956.86</ele>
        <time>2019-02-07T11:06:14Z</time>
      </trkpt>
      <trkpt lat="44.78946" lon="4.49546">
        <ele>959.68</ele>
        <time>2019-02-07T11:06:31Z</time>
      </trkpt>
      <trkpt lat="44.78952" lon="4.49532">
        <ele>961.4</ele>
        <time>2019-02-07T11:06:48Z</time>
      </trkpt>
      <trkpt lat="44.78961" lon="4.49522">
        <ele>962.86</ele>
        <time>2019-02-07T11:07:06Z</time>
      </trkpt>
      <trkpt lat="44.78963" lon="4.49517">
        <ele>963.3</ele>
        <time>2019-02-07T11:07:25Z</time>
      </trkpt>
      <trkpt lat="44.7897" lon="4.49504">
        <ele>965.2</ele>
        <time>2019-02-07T11:07:42Z</time>
      </trkpt>
      <trkpt lat="44.7897" lon="4.49497">
        <ele>965.97</ele>
        <time>2019-02-07T11:07:57Z</time>
      </trkpt>
      <trkpt lat="44.78973" lon="4.49489">
        <ele>966.96</ele>
        <time>2019-02-07T11:08:14Z</time>
      </trkpt>
      <trkpt lat="44.78977" lon="4.49476">
        <ele>968.15</ele>
        <time>2019-02-07T11:08:29Z</time>
      </trkpt>
      <trkpt lat="44.78981" lon="4.49465">
        <ele>969.3</ele>
        <time>2019-02-07T11:08:47Z</time>
      </trkpt>
      <trkpt lat="44.78987" lon="4.49447">
        <ele>970.92</ele>
        <time>2019-02-07T11:09:06Z</time>
      </trkpt>
      <trkpt lat="44.78992" lon="4.49433">
        <ele>971.22</ele>
        <time>2019-02-07T11:09:25Z</time>
      </trkpt>
      <trkpt lat="44.78993" lon="4.49433">
        <ele>971.16</ele>
        <time>2019-02-07T11:09:58Z</time>
      </trkpt>
      <trkpt lat="44.78989" lon="4.49431">
        <ele>971.49</ele>
        <time>2019-02-07T11:10:18Z</time>
      </trkpt>
      <trkpt lat="44.78979" lon="4.49427">
        <ele>971.47</ele>
        <time>2019-02-07T11:10:34Z</time>
      </trkpt>
      <trkpt lat="44.78977" lon="4.49426">
        <ele>971.32</ele>
        <time>2019-02-07T11:10:51Z</time>
      </trkpt>
      <trkpt lat="44.78977" lon="4.49426">
        <ele>971.89</ele>
        <time>2019-02-07T11:11:19Z</time>
      </trkpt>
      <trkpt lat="44.78977" lon="4.49426">
        <ele>972.04</ele>
        <time>2019-02-07T11:11:52Z</time>
      </trkpt>
      <trkpt lat="44.78975" lon="4.49427">
        <ele>971.8</ele>
        <time>2019-02-07T11:12:18Z</time>
      </trkpt>
      <trkpt lat="44.78974" lon="4.49425">
        <ele>971.65</ele>
        <time>2019-02-07T11:12:35Z</time>
      </trkpt>
      <trkpt lat="44.78971" lon="4.49424">
        <ele>971.43</ele>
        <time>2019-02-07T11:12:59Z</time>
      </trkpt>
      <trkpt lat="44.78957" lon="4.49419">
        <ele>970.37</ele>
        <time>2019-02-07T11:13:16Z</time>
      </trkpt>
      <trkpt lat="44.78946" lon="4.49416">
        <ele>969.46</ele>
        <time>2019-02-07T11:13:28Z</time>
      </trkpt>
      <trkpt lat="44.78936" lon="4.49414">
        <ele>967.94</ele>
        <time>2019-02-07T11:13:45Z</time>
      </trkpt>
      <trkpt lat="44.78927" lon="4.4941">
        <ele>966.26</ele>
        <time>2019-02-07T11:14:03Z</time>
      </trkpt>
      <trkpt lat="44.78924" lon="4.4941">
        <ele>965.72</ele>
        <time>2019-02-07T11:14:07Z</time>
      </trkpt>
      <trkpt lat="44.78909" lon="4.49427">
        <ele>963.32</ele>
        <time>2019-02-07T11:14:26Z</time>
      </trkpt>
      <trkpt lat="44.78903" lon="4.49432">
        <ele>962.27</ele>
        <time>2019-02-07T11:14:38Z</time>
      </trkpt>
      <trkpt lat="44.78893" lon="4.49442">
        <ele>960.94</ele>
        <time>2019-02-07T11:14:51Z</time>
      </trkpt>
      <trkpt lat="44.78885" lon="4.49455">
        <ele>960.15</ele>
        <time>2019-02-07T11:15:04Z</time>
      </trkpt>
      <trkpt lat="44.78873" lon="4.49473">
        <ele>958.76</ele>
        <time>2019-02-07T11:15:22Z</time>
      </trkpt>
      <trkpt lat="44.78858" lon="4.49493">
        <ele>957.54</ele>
        <time>2019-02-07T11:15:42Z</time>
      </trkpt>
      <trkpt lat="44.78846" lon="4.4951">
        <ele>956.83</ele>
        <time>2019-02-07T11:15:56Z</time>
      </trkpt>
      <trkpt lat="44.78829" lon="4.49531">
        <ele>956.45</ele>
        <time>2019-02-07T11:16:15Z</time>
      </trkpt>
      <trkpt lat="44.7882" lon="4.49543">
        <ele>956.3</ele>
        <time>2019-02-07T11:16:26Z</time>
      </trkpt>
      <trkpt lat="44.78806" lon="4.49555">
        <ele>954.92</ele>
        <time>2019-02-07T11:16:43Z</time>
      </trkpt>
      <trkpt lat="44.78787" lon="4.49567">
        <ele>952.39</ele>
        <time>2019-02-07T11:17:04Z</time>
      </trkpt>
      <trkpt lat="44.7879" lon="4.49574">
        <ele>952.53</ele>
        <time>2019-02-07T11:17:19Z</time>
      </trkpt>
      <trkpt lat="44.78791" lon="4.49576">
        <ele>952.68</ele>
        <time>2019-02-07T11:17:21Z</time>
      </trkpt>
      <trkpt lat="44.78793" lon="4.4959">
        <ele>952.26</ele>
        <time>2019-02-07T11:17:30Z</time>
      </trkpt>
      <trkpt lat="44.78801" lon="4.49618">
        <ele>951.28</ele>
        <time>2019-02-07T11:17:49Z</time>
      </trkpt>
      <trkpt lat="44.78806" lon="4.49648">
        <ele>950.03</ele>
        <time>2019-02-07T11:18:09Z</time>
      </trkpt>
      <trkpt lat="44.7881" lon="4.49679">
        <ele>949.35</ele>
        <time>2019-02-07T11:18:28Z</time>
      </trkpt>
      <trkpt lat="44.78813" lon="4.49699">
        <ele>949.14</ele>
        <time>2019-02-07T11:18:43Z</time>
      </trkpt>
      <trkpt lat="44.78818" lon="4.49726">
        <ele>947.81</ele>
        <time>2019-02-07T11:19:02Z</time>
      </trkpt>
      <trkpt lat="44.78823" lon="4.49737">
        <ele>947.19</ele>
        <time>2019-02-07T11:19:14Z</time>
      </trkpt>
      <trkpt lat="44.78828" lon="4.49746">
        <ele>946.93</ele>
        <time>2019-02-07T11:19:32Z</time>
      </trkpt>
      <trkpt lat="44.78829" lon="4.49747">
        <ele>946.77</ele>
        <time>2019-02-07T11:19:51Z</time>
      </trkpt>
      <trkpt lat="44.78843" lon="4.49767">
        <ele>945.56</ele>
        <time>2019-02-07T11:20:11Z</time>
      </trkpt>
      <trkpt lat="44.78846" lon="4.4977">
        <ele>945.52</ele>
        <time>2019-02-07T11:20:15Z</time>
      </trkpt>
      <trkpt lat="44.78854" lon="4.49775">
        <ele>945.03</ele>
        <time>2019-02-07T11:20:33Z</time>
      </trkpt>
      <trkpt lat="44.78859" lon="4.49779">
        <ele>945.06</ele>
        <time>2019-02-07T11:20:55Z</time>
      </trkpt>
      <trkpt lat="44.78867" lon="4.49787">
        <ele>943.44</ele>
        <time>2019-02-07T11:21:13Z</time>
      </trkpt>
      <trkpt lat="44.78873" lon="4.49792">
        <ele>942.23</ele>
        <time>2019-02-07T11:21:28Z</time>
      </trkpt>
      <trkpt lat="44.78881" lon="4.49796">
        <ele>941.09</ele>
        <time>2019-02-07T11:21:44Z</time>
      </trkpt>
      <trkpt lat="44.78886" lon="4.49799">
        <ele>940.63</ele>
        <time>2019-02-07T11:21:57Z</time>
      </trkpt>
      <trkpt lat="44.78889" lon="4.49799">
        <ele>940.92</ele>
        <time>2019-02-07T11:22:11Z</time>
      </trkpt>
      <trkpt lat="44.78891" lon="4.49797">
        <ele>940.8</ele>
        <time>2019-02-07T11:22:24Z</time>
      </trkpt>
      <trkpt lat="44.78893" lon="4.49797">
        <ele>940.65</ele>
        <time>2019-02-07T11:22:41Z</time>
      </trkpt>
      <trkpt lat="44.78895" lon="4.49797">
        <ele>941.09</ele>
        <time>2019-02-07T11:22:55Z</time>
      </trkpt>
      <trkpt lat="44.78901" lon="4.49795">
        <ele>942.06</ele>
        <time>2019-02-07T11:23:09Z</time>
      </trkpt>
      <trkpt lat="44.78908" lon="4.49786">
        <ele>944.79</ele>
        <time>2019-02-07T11:23:26Z</time>
      </trkpt>
      <trkpt lat="44.7891" lon="4.49785">
        <ele>945.64</ele>
        <time>2019-02-07T11:23:31Z</time>
      </trkpt>
      <trkpt lat="44.78917" lon="4.49778">
        <ele>947.11</ele>
        <time>2019-02-07T11:23:47Z</time>
      </trkpt>
      <trkpt lat="44.78921" lon="4.49773">
        <ele>948.23</ele>
        <time>2019-02-07T11:23:59Z</time>
      </trkpt>
      <trkpt lat="44.78922" lon="4.49772">
        <ele>948.02</ele>
        <time>2019-02-07T11:24:18Z</time>
      </trkpt>
      <trkpt lat="44.78922" lon="4.49774">
        <ele>947.92</ele>
        <time>2019-02-07T11:24:50Z</time>
      </trkpt>
      <trkpt lat="44.78922" lon="4.49774">
        <ele>947.64</ele>
        <time>2019-02-07T11:25:06Z</time>
      </trkpt>
      <trkpt lat="44.78921" lon="4.49779">
        <ele>946.91</ele>
        <time>2019-02-07T11:25:19Z</time>
      </trkpt>
      <trkpt lat="44.78919" lon="4.49781">
        <ele>946.6</ele>
        <time>2019-02-07T11:25:33Z</time>
      </trkpt>
      <trkpt lat="44.78919" lon="4.49779">
        <ele>946.69</ele>
        <time>2019-02-07T11:25:49Z</time>
      </trkpt>
      <trkpt lat="44.78918" lon="4.4978">
        <ele>946.53</ele>
        <time>2019-02-07T11:26:27Z</time>
      </trkpt>
      <trkpt lat="44.7892" lon="4.49779">
        <ele>946.7</ele>
        <time>2019-02-07T11:26:53Z</time>
      </trkpt>
      <trkpt lat="44.78921" lon="4.49779">
        <ele>946.98</ele>
        <time>2019-02-07T11:27:17Z</time>
      </trkpt>
      <trkpt lat="44.7892" lon="4.49779">
        <ele>946.91</ele>
        <time>2019-02-07T11:27:52Z</time>
      </trkpt>
      <trkpt lat="44.78921" lon="4.49779">
        <ele>946.77</ele>
        <time>2019-02-07T11:28:31Z</time>
      </trkpt>
      <trkpt lat="44.78921" lon="4.49779">
        <ele>946.85</ele>
        <time>2019-02-07T11:29:03Z</time>
      </trkpt>
      <trkpt lat="44.78921" lon="4.49779">
        <ele>946.85</ele>
        <time>2019-02-07T11:29:39Z</time>
      </trkpt>
      <trkpt lat="44.7892" lon="4.49776">
        <ele>947.39</ele>
        <time>2019-02-07T11:30:03Z</time>
      </trkpt>
      <trkpt lat="44.7893" lon="4.49774">
        <ele>946.61</ele>
        <time>2019-02-07T11:30:17Z</time>
      </trkpt>
      <trkpt lat="44.78936" lon="4.4977">
        <ele>945.95</ele>
        <time>2019-02-07T11:30:30Z</time>
      </trkpt>
      <trkpt lat="44.78951" lon="4.49772">
        <ele>944.14</ele>
        <time>2019-02-07T11:30:46Z</time>
      </trkpt>
      <trkpt lat="44.78954" lon="4.49773">
        <ele>943.51</ele>
        <time>2019-02-07T11:30:50Z</time>
      </trkpt>
      <trkpt lat="44.78964" lon="4.49776">
        <ele>942.44</ele>
        <time>2019-02-07T11:31:01Z</time>
      </trkpt>
      <trkpt lat="44.7897" lon="4.49778">
        <ele>940.79</ele>
        <time>2019-02-07T11:31:11Z</time>
      </trkpt>
      <trkpt lat="44.78979" lon="4.49779">
        <ele>938.76</ele>
        <time>2019-02-07T11:31:26Z</time>
      </trkpt>
      <trkpt lat="44.78987" lon="4.49788">
        <ele>935.94</ele>
        <time>2019-02-07T11:31:41Z</time>
      </trkpt>
      <trkpt lat="44.78993" lon="4.49802">
        <ele>932.87</ele>
        <time>2019-02-07T11:31:58Z</time>
      </trkpt>
      <trkpt lat="44.78999" lon="4.49812">
        <ele>929.86</ele>
        <time>2019-02-07T11:32:15Z</time>
      </trkpt>
      <trkpt lat="44.79003" lon="4.49819">
        <ele>928.24</ele>
        <time>2019-02-07T11:32:28Z</time>
      </trkpt>
      <trkpt lat="44.79005" lon="4.49822">
        <ele>927.32</ele>
        <time>2019-02-07T11:32:32Z</time>
      </trkpt>
      <trkpt lat="44.79018" lon="4.49837">
        <ele>923.83</ele>
        <time>2019-02-07T11:32:50Z</time>
      </trkpt>
      <trkpt lat="44.79026" lon="4.49843">
        <ele>922.91</ele>
        <time>2019-02-07T11:33:04Z</time>
      </trkpt>
      <trkpt lat="44.7904" lon="4.49847">
        <ele>922.62</ele>
        <time>2019-02-07T11:33:21Z</time>
      </trkpt>
      <trkpt lat="44.79045" lon="4.49848">
        <ele>922.83</ele>
        <time>2019-02-07T11:33:35Z</time>
      </trkpt>
      <trkpt lat="44.79058" lon="4.49849">
        <ele>921.66</ele>
        <time>2019-02-07T11:33:50Z</time>
      </trkpt>
      <trkpt lat="44.79071" lon="4.49858">
        <ele>920.18</ele>
        <time>2019-02-07T11:34:06Z</time>
      </trkpt>
      <trkpt lat="44.79076" lon="4.49879">
        <ele>919.19</ele>
        <time>2019-02-07T11:34:24Z</time>
      </trkpt>
      <trkpt lat="44.79077" lon="4.49883">
        <ele>919.42</ele>
        <time>2019-02-07T11:34:39Z</time>
      </trkpt>
      <trkpt lat="44.79082" lon="4.49895">
        <ele>918.18</ele>
        <time>2019-02-07T11:34:59Z</time>
      </trkpt>
      <trkpt lat="44.79084" lon="4.49903">
        <ele>917</ele>
        <time>2019-02-07T11:35:08Z</time>
      </trkpt>
      <trkpt lat="44.79084" lon="4.49915">
        <ele>916.29</ele>
        <time>2019-02-07T11:35:24Z</time>
      </trkpt>
      <trkpt lat="44.79084" lon="4.49917">
        <ele>915.93</ele>
        <time>2019-02-07T11:35:35Z</time>
      </trkpt>
      <trkpt lat="44.79076" lon="4.49922">
        <ele>915.24</ele>
        <time>2019-02-07T11:35:48Z</time>
      </trkpt>
      <trkpt lat="44.79066" lon="4.49923">
        <ele>913.99</ele>
        <time>2019-02-07T11:36:02Z</time>
      </trkpt>
      <trkpt lat="44.7906" lon="4.49922">
        <ele>913.21</ele>
        <time>2019-02-07T11:36:16Z</time>
      </trkpt>
      <trkpt lat="44.79054" lon="4.49922">
        <ele>911.63</ele>
        <time>2019-02-07T11:36:32Z</time>
      </trkpt>
      <trkpt lat="44.79049" lon="4.49923">
        <ele>909.12</ele>
        <time>2019-02-07T11:36:49Z</time>
      </trkpt>
      <trkpt lat="44.79045" lon="4.49923">
        <ele>908.18</ele>
        <time>2019-02-07T11:37:03Z</time>
      </trkpt>
      <trkpt lat="44.79044" lon="4.49923">
        <ele>908.21</ele>
        <time>2019-02-07T11:37:26Z</time>
      </trkpt>
      <trkpt lat="44.79047" lon="4.49926">
        <ele>907.57</ele>
        <time>2019-02-07T11:37:43Z</time>
      </trkpt>
      <trkpt lat="44.79049" lon="4.49934">
        <ele>905.57</ele>
        <time>2019-02-07T11:38:02Z</time>
      </trkpt>
      <trkpt lat="44.79049" lon="4.49939">
        <ele>904.54</ele>
        <time>2019-02-07T11:38:25Z</time>
      </trkpt>
      <trkpt lat="44.79048" lon="4.49949">
        <ele>902.59</ele>
        <time>2019-02-07T11:38:39Z</time>
      </trkpt>
      <trkpt lat="44.79045" lon="4.49953">
        <ele>901.29</ele>
        <time>2019-02-07T11:38:55Z</time>
      </trkpt>
      <trkpt lat="44.79044" lon="4.49959">
        <ele>899.92</ele>
        <time>2019-02-07T11:39:12Z</time>
      </trkpt>
      <trkpt lat="44.79044" lon="4.4997">
        <ele>898.87</ele>
        <time>2019-02-07T11:39:27Z</time>
      </trkpt>
      <trkpt lat="44.79043" lon="4.49977">
        <ele>898.52</ele>
        <time>2019-02-07T11:39:41Z</time>
      </trkpt>
      <trkpt lat="44.79043" lon="4.49986">
        <ele>898.54</ele>
        <time>2019-02-07T11:39:57Z</time>
      </trkpt>
      <trkpt lat="44.79044" lon="4.49998">
        <ele>898.52</ele>
        <time>2019-02-07T11:40:13Z</time>
      </trkpt>
      <trkpt lat="44.79039" lon="4.50003">
        <ele>896.01</ele>
        <time>2019-02-07T11:40:30Z</time>
      </trkpt>
      <trkpt lat="44.79037" lon="4.49999">
        <ele>894.93</ele>
        <time>2019-02-07T11:40:47Z</time>
      </trkpt>
      <trkpt lat="44.79033" lon="4.49986">
        <ele>893.45</ele>
        <time>2019-02-07T11:41:05Z</time>
      </trkpt>
      <trkpt lat="44.7903" lon="4.4998">
        <ele>891.85</ele>
        <time>2019-02-07T11:41:19Z</time>
      </trkpt>
      <trkpt lat="44.79025" lon="4.49974">
        <ele>889.74</ele>
        <time>2019-02-07T11:41:39Z</time>
      </trkpt>
      <trkpt lat="44.79026" lon="4.49979">
        <ele>889.74</ele>
        <time>2019-02-07T11:41:52Z</time>
      </trkpt>
      <trkpt lat="44.79022" lon="4.49969">
        <ele>888.95</ele>
        <time>2019-02-07T11:42:09Z</time>
      </trkpt>
      <trkpt lat="44.79025" lon="4.49972">
        <ele>889.69</ele>
        <time>2019-02-07T11:42:33Z</time>
      </trkpt>
      <trkpt lat="44.79025" lon="4.49974">
        <ele>888.76</ele>
        <time>2019-02-07T11:42:53Z</time>
      </trkpt>
      <trkpt lat="44.79023" lon="4.49969">
        <ele>888.75</ele>
        <time>2019-02-07T11:43:20Z</time>
      </trkpt>
      <trkpt lat="44.79023" lon="4.49968">
        <ele>888.61</ele>
        <time>2019-02-07T11:43:39Z</time>
      </trkpt>
      <trkpt lat="44.79024" lon="4.49967">
        <ele>888.95</ele>
        <time>2019-02-07T11:44:00Z</time>
      </trkpt>
      <trkpt lat="44.79023" lon="4.49964">
        <ele>888.94</ele>
        <time>2019-02-07T11:44:23Z</time>
      </trkpt>
      <trkpt lat="44.79022" lon="4.49967">
        <ele>888.99</ele>
        <time>2019-02-07T11:44:47Z</time>
      </trkpt>
      <trkpt lat="44.79023" lon="4.49965">
        <ele>888.6</ele>
        <time>2019-02-07T11:45:18Z</time>
      </trkpt>
      <trkpt lat="44.79022" lon="4.49964">
        <ele>888.97</ele>
        <time>2019-02-07T11:46:34Z</time>
      </trkpt>
      <trkpt lat="44.79022" lon="4.49962">
        <ele>889.04</ele>
        <time>2019-02-07T11:46:38Z</time>
      </trkpt>
      <trkpt lat="44.79022" lon="4.49962">
        <ele>888.9</ele>
        <time>2019-02-07T11:47:14Z</time>
      </trkpt>
      <trkpt lat="44.7902" lon="4.49966">
        <ele>889.22</ele>
        <time>2019-02-07T11:48:09Z</time>
      </trkpt>
      <trkpt lat="44.79025" lon="4.49975">
        <ele>889.72</ele>
        <time>2019-02-07T11:48:37Z</time>
      </trkpt>
      <trkpt lat="44.79025" lon="4.49976">
        <ele>889.74</ele>
        <time>2019-02-07T11:49:03Z</time>
      </trkpt>
      <trkpt lat="44.79024" lon="4.49973">
        <ele>889.77</ele>
        <time>2019-02-07T11:49:31Z</time>
      </trkpt>
      <trkpt lat="44.79025" lon="4.49972">
        <ele>889.11</ele>
        <time>2019-02-07T11:50:05Z</time>
      </trkpt>
      <trkpt lat="44.79024" lon="4.4997">
        <ele>889.12</ele>
        <time>2019-02-07T11:50:59Z</time>
      </trkpt>
      <trkpt lat="44.79024" lon="4.49968">
        <ele>889.28</ele>
        <time>2019-02-07T11:51:25Z</time>
      </trkpt>
      <trkpt lat="44.79024" lon="4.49966">
        <ele>889.33</ele>
        <time>2019-02-07T11:51:55Z</time>
      </trkpt>
      <trkpt lat="44.79024" lon="4.49958">
        <ele>889.07</ele>
        <time>2019-02-07T11:52:44Z</time>
      </trkpt>
      <trkpt lat="44.79016" lon="4.49951">
        <ele>889.7</ele>
        <time>2019-02-07T11:56:53Z</time>
      </trkpt>
      <trkpt lat="44.79016" lon="4.49954">
        <ele>889.69</ele>
        <time>2019-02-07T11:57:35Z</time>
      </trkpt>
      <trkpt lat="44.79021" lon="4.49958">
        <ele>889.52</ele>
        <time>2019-02-07T11:58:46Z</time>
      </trkpt>
      <trkpt lat="44.79022" lon="4.49975">
        <ele>890.12</ele>
        <time>2019-02-07T12:05:53Z</time>
      </trkpt>
      <trkpt lat="44.79022" lon="4.49972">
        <ele>890.46</ele>
        <time>2019-02-07T12:06:26Z</time>
      </trkpt>
      <trkpt lat="44.79021" lon="4.4997">
        <ele>890.35</ele>
        <time>2019-02-07T12:06:53Z</time>
      </trkpt>
      <trkpt lat="44.79021" lon="4.49971">
        <ele>890.24</ele>
        <time>2019-02-07T12:07:22Z</time>
      </trkpt>
      <trkpt lat="44.79017" lon="4.49964">
        <ele>890.59</ele>
        <time>2019-02-07T12:07:45Z</time>
      </trkpt>
      <trkpt lat="44.79014" lon="4.49958">
        <ele>890.91</ele>
        <time>2019-02-07T12:08:10Z</time>
      </trkpt>
      <trkpt lat="44.79014" lon="4.49955">
        <ele>891.26</ele>
        <time>2019-02-07T12:08:34Z</time>
      </trkpt>
      <trkpt lat="44.79015" lon="4.49962">
        <ele>891.19</ele>
        <time>2019-02-07T12:08:57Z</time>
      </trkpt>
      <trkpt lat="44.79017" lon="4.49966">
        <ele>891.47</ele>
        <time>2019-02-07T12:09:24Z</time>
      </trkpt>
      <trkpt lat="44.79018" lon="4.49964">
        <ele>891.77</ele>
        <time>2019-02-07T12:09:53Z</time>
      </trkpt>
      <trkpt lat="44.79019" lon="4.49964">
        <ele>891.9</ele>
        <time>2019-02-07T12:10:23Z</time>
      </trkpt>
      <trkpt lat="44.7902" lon="4.49963">
        <ele>892.14</ele>
        <time>2019-02-07T12:10:54Z</time>
      </trkpt>
      <trkpt lat="44.79021" lon="4.49967">
        <ele>892.48</ele>
        <time>2019-02-07T12:11:24Z</time>
      </trkpt>
      <trkpt lat="44.7902" lon="4.49967">
        <ele>892.7</ele>
        <time>2019-02-07T12:11:56Z</time>
      </trkpt>
      <trkpt lat="44.79018" lon="4.4997">
        <ele>893.04</ele>
        <time>2019-02-07T12:12:27Z</time>
      </trkpt>
      <trkpt lat="44.79019" lon="4.49973">
        <ele>893.25</ele>
        <time>2019-02-07T12:12:58Z</time>
      </trkpt>
      <trkpt lat="44.7902" lon="4.49967">
        <ele>893.3</ele>
        <time>2019-02-07T12:13:28Z</time>
      </trkpt>
      <trkpt lat="44.79019" lon="4.49967">
        <ele>893.5</ele>
        <time>2019-02-07T12:13:59Z</time>
      </trkpt>
      <trkpt lat="44.79019" lon="4.49965">
        <ele>893.73</ele>
        <time>2019-02-07T12:14:28Z</time>
      </trkpt>
      <trkpt lat="44.79016" lon="4.49958">
        <ele>893.98</ele>
        <time>2019-02-07T12:15:06Z</time>
      </trkpt>
      <trkpt lat="44.79014" lon="4.49956">
        <ele>894.63</ele>
        <time>2019-02-07T12:15:33Z</time>
      </trkpt>
      <trkpt lat="44.79015" lon="4.49959">
        <ele>894.74</ele>
        <time>2019-02-07T12:16:05Z</time>
      </trkpt>
      <trkpt lat="44.79018" lon="4.49964">
        <ele>894.93</ele>
        <time>2019-02-07T12:16:35Z</time>
      </trkpt>
      <trkpt lat="44.7902" lon="4.4997">
        <ele>895.11</ele>
        <time>2019-02-07T12:17:05Z</time>
      </trkpt>
      <trkpt lat="44.79019" lon="4.49969">
        <ele>895.29</ele>
        <time>2019-02-07T12:17:34Z</time>
      </trkpt>
      <trkpt lat="44.7902" lon="4.49965">
        <ele>895.62</ele>
        <time>2019-02-07T12:17:58Z</time>
      </trkpt>
      <trkpt lat="44.79021" lon="4.49962">
        <ele>895.66</ele>
        <time>2019-02-07T12:18:24Z</time>
      </trkpt>
      <trkpt lat="44.7902" lon="4.49963">
        <ele>895.92</ele>
        <time>2019-02-07T12:18:55Z</time>
      </trkpt>
      <trkpt lat="44.79018" lon="4.49965">
        <ele>896.06</ele>
        <time>2019-02-07T12:19:25Z</time>
      </trkpt>
      <trkpt lat="44.7902" lon="4.49969">
        <ele>896.28</ele>
        <time>2019-02-07T12:19:55Z</time>
      </trkpt>
      <trkpt lat="44.79019" lon="4.49966">
        <ele>896.33</ele>
        <time>2019-02-07T12:20:28Z</time>
      </trkpt>
      <trkpt lat="44.7902" lon="4.49968">
        <ele>896.55</ele>
        <time>2019-02-07T12:20:53Z</time>
      </trkpt>
      <trkpt lat="44.7902" lon="4.4997">
        <ele>897.14</ele>
        <time>2019-02-07T12:21:49Z</time>
      </trkpt>
      <trkpt lat="44.79019" lon="4.49966">
        <ele>897.61</ele>
        <time>2019-02-07T12:22:18Z</time>
      </trkpt>
      <trkpt lat="44.79017" lon="4.49972">
        <ele>897.87</ele>
        <time>2019-02-07T12:22:48Z</time>
      </trkpt>
      <trkpt lat="44.79015" lon="4.49968">
        <ele>898.11</ele>
        <time>2019-02-07T12:23:16Z</time>
      </trkpt>
      <trkpt lat="44.79015" lon="4.49972">
        <ele>898.25</ele>
        <time>2019-02-07T12:23:42Z</time>
      </trkpt>
      <trkpt lat="44.79016" lon="4.49973">
        <ele>897.97</ele>
        <time>2019-02-07T12:24:08Z</time>
      </trkpt>
      <trkpt lat="44.79015" lon="4.49971">
        <ele>898.08</ele>
        <time>2019-02-07T12:24:40Z</time>
      </trkpt>
      <trkpt lat="44.79017" lon="4.49974">
        <ele>898.33</ele>
        <time>2019-02-07T12:25:10Z</time>
      </trkpt>
      <trkpt lat="44.79017" lon="4.4997">
        <ele>898.59</ele>
        <time>2019-02-07T12:25:42Z</time>
      </trkpt>
      <trkpt lat="44.79015" lon="4.49967">
        <ele>898.66</ele>
        <time>2019-02-07T12:25:54Z</time>
      </trkpt>
      <trkpt lat="44.79016" lon="4.49965">
        <ele>898.76</ele>
        <time>2019-02-07T12:25:58Z</time>
      </trkpt>
      <trkpt lat="44.79017" lon="4.49964">
        <ele>898.81</ele>
        <time>2019-02-07T12:26:22Z</time>
      </trkpt>
      <trkpt lat="44.79018" lon="4.49965">
        <ele>899.17</ele>
        <time>2019-02-07T12:26:55Z</time>
      </trkpt>
      <trkpt lat="44.7902" lon="4.49968">
        <ele>899.57</ele>
        <time>2019-02-07T12:27:33Z</time>
      </trkpt>
      <trkpt lat="44.79018" lon="4.49962">
        <ele>900.22</ele>
        <time>2019-02-07T12:28:26Z</time>
      </trkpt>
      <trkpt lat="44.79017" lon="4.49968">
        <ele>901.11</ele>
        <time>2019-02-07T12:29:23Z</time>
      </trkpt>
      <trkpt lat="44.79016" lon="4.49968">
        <ele>902.66</ele>
        <time>2019-02-07T12:29:41Z</time>
      </trkpt>
      <trkpt lat="44.79019" lon="4.49968">
        <ele>902.38</ele>
        <time>2019-02-07T12:30:09Z</time>
      </trkpt>
      <trkpt lat="44.79017" lon="4.49964">
        <ele>902.74</ele>
        <time>2019-02-07T12:30:39Z</time>
      </trkpt>
      <trkpt lat="44.7902" lon="4.49965">
        <ele>902.9</ele>
        <time>2019-02-07T12:31:24Z</time>
      </trkpt>
      <trkpt lat="44.79021" lon="4.49967">
        <ele>903.18</ele>
        <time>2019-02-07T12:31:44Z</time>
      </trkpt>
      <trkpt lat="44.79023" lon="4.49969">
        <ele>903.3</ele>
        <time>2019-02-07T12:32:10Z</time>
      </trkpt>
      <trkpt lat="44.79023" lon="4.4997">
        <ele>903.88</ele>
        <time>2019-02-07T12:32:33Z</time>
      </trkpt>
      <trkpt lat="44.79023" lon="4.4997">
        <ele>903.92</ele>
        <time>2019-02-07T12:33:00Z</time>
      </trkpt>
      <trkpt lat="44.7902" lon="4.4997">
        <ele>903.17</ele>
        <time>2019-02-07T12:33:24Z</time>
      </trkpt>
      <trkpt lat="44.79019" lon="4.49972">
        <ele>902.37</ele>
        <time>2019-02-07T12:33:42Z</time>
      </trkpt>
      <trkpt lat="44.79017" lon="4.49972">
        <ele>901.04</ele>
        <time>2019-02-07T12:33:59Z</time>
      </trkpt>
      <trkpt lat="44.7901" lon="4.49965">
        <ele>898</ele>
        <time>2019-02-07T12:34:19Z</time>
      </trkpt>
      <trkpt lat="44.79001" lon="4.49961">
        <ele>897.07</ele>
        <time>2019-02-07T12:34:38Z</time>
      </trkpt>
      <trkpt lat="44.78992" lon="4.49959">
        <ele>896.73</ele>
        <time>2019-02-07T12:34:55Z</time>
      </trkpt>
      <trkpt lat="44.78987" lon="4.49957">
        <ele>896.6</ele>
        <time>2019-02-07T12:35:13Z</time>
      </trkpt>
      <trkpt lat="44.78983" lon="4.49956">
        <ele>896.31</ele>
        <time>2019-02-07T12:35:39Z</time>
      </trkpt>
      <trkpt lat="44.78972" lon="4.49955">
        <ele>895.53</ele>
        <time>2019-02-07T12:35:57Z</time>
      </trkpt>
      <trkpt lat="44.78961" lon="4.49952">
        <ele>895.28</ele>
        <time>2019-02-07T12:36:13Z</time>
      </trkpt>
      <trkpt lat="44.78956" lon="4.49953">
        <ele>894.87</ele>
        <time>2019-02-07T12:36:23Z</time>
      </trkpt>
      <trkpt lat="44.78945" lon="4.49957">
        <ele>893.67</ele>
        <time>2019-02-07T12:36:41Z</time>
      </trkpt>
      <trkpt lat="44.78943" lon="4.49959">
        <ele>893.29</ele>
        <time>2019-02-07T12:36:56Z</time>
      </trkpt>
      <trkpt lat="44.78933" lon="4.49961">
        <ele>893.92</ele>
        <time>2019-02-07T12:37:12Z</time>
      </trkpt>
      <trkpt lat="44.78932" lon="4.49961">
        <ele>893.97</ele>
        <time>2019-02-07T12:37:21Z</time>
      </trkpt>
      <trkpt lat="44.78924" lon="4.4996">
        <ele>893.46</ele>
        <time>2019-02-07T12:37:37Z</time>
      </trkpt>
      <trkpt lat="44.78912" lon="4.49958">
        <ele>891.91</ele>
        <time>2019-02-07T12:37:49Z</time>
      </trkpt>
      <trkpt lat="44.78903" lon="4.49953">
        <ele>891.71</ele>
        <time>2019-02-07T12:38:02Z</time>
      </trkpt>
      <trkpt lat="44.78893" lon="4.49951">
        <ele>889.92</ele>
        <time>2019-02-07T12:38:17Z</time>
      </trkpt>
      <trkpt lat="44.78884" lon="4.4995">
        <ele>887.91</ele>
        <time>2019-02-07T12:38:31Z</time>
      </trkpt>
      <trkpt lat="44.78877" lon="4.49952">
        <ele>886.32</ele>
        <time>2019-02-07T12:38:39Z</time>
      </trkpt>
      <trkpt lat="44.78866" lon="4.49948">
        <ele>887.15</ele>
        <time>2019-02-07T12:38:54Z</time>
      </trkpt>
      <trkpt lat="44.78851" lon="4.49942">
        <ele>886.14</ele>
        <time>2019-02-07T12:39:13Z</time>
      </trkpt>
      <trkpt lat="44.78841" lon="4.49937">
        <ele>886.27</ele>
        <time>2019-02-07T12:39:30Z</time>
      </trkpt>
      <trkpt lat="44.78828" lon="4.49942">
        <ele>883.78</ele>
        <time>2019-02-07T12:39:47Z</time>
      </trkpt>
      <trkpt lat="44.78824" lon="4.49944">
        <ele>883.6</ele>
        <time>2019-02-07T12:39:51Z</time>
      </trkpt>
      <trkpt lat="44.78822" lon="4.49945">
        <ele>883.55</ele>
        <time>2019-02-07T12:39:53Z</time>
      </trkpt>
      <trkpt lat="44.78812" lon="4.49958">
        <ele>883.11</ele>
        <time>2019-02-07T12:40:08Z</time>
      </trkpt>
      <trkpt lat="44.7881" lon="4.49962">
        <ele>882.71</ele>
        <time>2019-02-07T12:40:26Z</time>
      </trkpt>
      <trkpt lat="44.78805" lon="4.49968">
        <ele>881.74</ele>
        <time>2019-02-07T12:40:44Z</time>
      </trkpt>
      <trkpt lat="44.78802" lon="4.49972">
        <ele>881.47</ele>
        <time>2019-02-07T12:41:03Z</time>
      </trkpt>
      <trkpt lat="44.78795" lon="4.49983">
        <ele>879.84</ele>
        <time>2019-02-07T12:41:17Z</time>
      </trkpt>
      <trkpt lat="44.7879" lon="4.49992">
        <ele>878.26</ele>
        <time>2019-02-07T12:41:27Z</time>
      </trkpt>
      <trkpt lat="44.78789" lon="4.49994">
        <ele>878.28</ele>
        <time>2019-02-07T12:41:42Z</time>
      </trkpt>
      <trkpt lat="44.7879" lon="4.49992">
        <ele>877.99</ele>
        <time>2019-02-07T12:42:22Z</time>
      </trkpt>
      <trkpt lat="44.78787" lon="4.49995">
        <ele>877.88</ele>
        <time>2019-02-07T12:42:38Z</time>
      </trkpt>
      <trkpt lat="44.78774" lon="4.50017">
        <ele>874.84</ele>
        <time>2019-02-07T12:42:57Z</time>
      </trkpt>
      <trkpt lat="44.78768" lon="4.50029">
        <ele>873.42</ele>
        <time>2019-02-07T12:43:16Z</time>
      </trkpt>
      <trkpt lat="44.78767" lon="4.50033">
        <ele>872.78</ele>
        <time>2019-02-07T12:43:32Z</time>
      </trkpt>
      <trkpt lat="44.78758" lon="4.50057">
        <ele>869.63</ele>
        <time>2019-02-07T12:43:52Z</time>
      </trkpt>
      <trkpt lat="44.78751" lon="4.50078">
        <ele>867.06</ele>
        <time>2019-02-07T12:44:10Z</time>
      </trkpt>
      <trkpt lat="44.78749" lon="4.50087">
        <ele>866.41</ele>
        <time>2019-02-07T12:44:16Z</time>
      </trkpt>
      <trkpt lat="44.78736" lon="4.5011">
        <ele>863.91</ele>
        <time>2019-02-07T12:44:36Z</time>
      </trkpt>
      <trkpt lat="44.78722" lon="4.50132">
        <ele>862.47</ele>
        <time>2019-02-07T12:44:55Z</time>
      </trkpt>
      <trkpt lat="44.78723" lon="4.50143">
        <ele>859.72</ele>
        <time>2019-02-07T12:45:11Z</time>
      </trkpt>
      <trkpt lat="44.78725" lon="4.50151">
        <ele>856.92</ele>
        <time>2019-02-07T12:45:25Z</time>
      </trkpt>
      <trkpt lat="44.78726" lon="4.50155">
        <ele>856.07</ele>
        <time>2019-02-07T12:45:38Z</time>
      </trkpt>
      <trkpt lat="44.78728" lon="4.50163">
        <ele>853.94</ele>
        <time>2019-02-07T12:45:52Z</time>
      </trkpt>
      <trkpt lat="44.7873" lon="4.50171">
        <ele>851.94</ele>
        <time>2019-02-07T12:46:04Z</time>
      </trkpt>
      <trkpt lat="44.78732" lon="4.5018">
        <ele>848.71</ele>
        <time>2019-02-07T12:46:19Z</time>
      </trkpt>
      <trkpt lat="44.78733" lon="4.50188">
        <ele>846.79</ele>
        <time>2019-02-07T12:46:35Z</time>
      </trkpt>
      <trkpt lat="44.7873" lon="4.50197">
        <ele>843.69</ele>
        <time>2019-02-07T12:46:50Z</time>
      </trkpt>
      <trkpt lat="44.78725" lon="4.50205">
        <ele>840.65</ele>
        <time>2019-02-07T12:47:04Z</time>
      </trkpt>
      <trkpt lat="44.7873" lon="4.50212">
        <ele>837.91</ele>
        <time>2019-02-07T12:47:21Z</time>
      </trkpt>
      <trkpt lat="44.78729" lon="4.5022">
        <ele>835.87</ele>
        <time>2019-02-07T12:47:35Z</time>
      </trkpt>
      <trkpt lat="44.7872" lon="4.50227">
        <ele>833.64</ele>
        <time>2019-02-07T12:47:51Z</time>
      </trkpt>
      <trkpt lat="44.78715" lon="4.50229">
        <ele>831.56</ele>
        <time>2019-02-07T12:48:06Z</time>
      </trkpt>
      <trkpt lat="44.78718" lon="4.50237">
        <ele>829.4</ele>
        <time>2019-02-07T12:48:22Z</time>
      </trkpt>
      <trkpt lat="44.78726" lon="4.50244">
        <ele>827.2</ele>
        <time>2019-02-07T12:48:39Z</time>
      </trkpt>
      <trkpt lat="44.7873" lon="4.50251">
        <ele>824.51</ele>
        <time>2019-02-07T12:48:58Z</time>
      </trkpt>
      <trkpt lat="44.78734" lon="4.50258">
        <ele>821.44</ele>
        <time>2019-02-07T12:49:17Z</time>
      </trkpt>
      <trkpt lat="44.78743" lon="4.50262">
        <ele>818.34</ele>
        <time>2019-02-07T12:49:31Z</time>
      </trkpt>
      <trkpt lat="44.78752" lon="4.50263">
        <ele>816.26</ele>
        <time>2019-02-07T12:49:49Z</time>
      </trkpt>
      <trkpt lat="44.78765" lon="4.50261">
        <ele>813.48</ele>
        <time>2019-02-07T12:50:06Z</time>
      </trkpt>
      <trkpt lat="44.78778" lon="4.50256">
        <ele>810.77</ele>
        <time>2019-02-07T12:50:24Z</time>
      </trkpt>
      <trkpt lat="44.78786" lon="4.50253">
        <ele>809.58</ele>
        <time>2019-02-07T12:50:41Z</time>
      </trkpt>
      <trkpt lat="44.78786" lon="4.50252">
        <ele>809.36</ele>
        <time>2019-02-07T12:50:42Z</time>
      </trkpt>
      <trkpt lat="44.78795" lon="4.50238">
        <ele>808.45</ele>
        <time>2019-02-07T12:50:57Z</time>
      </trkpt>
      <trkpt lat="44.78803" lon="4.50227">
        <ele>807.72</ele>
        <time>2019-02-07T12:51:12Z</time>
      </trkpt>
      <trkpt lat="44.7881" lon="4.50216">
        <ele>807.93</ele>
        <time>2019-02-07T12:51:25Z</time>
      </trkpt>
      <trkpt lat="44.78812" lon="4.50213">
        <ele>807.82</ele>
        <time>2019-02-07T12:51:29Z</time>
      </trkpt>
      <trkpt lat="44.78816" lon="4.50209">
        <ele>808.12</ele>
        <time>2019-02-07T12:51:45Z</time>
      </trkpt>
      <trkpt lat="44.78823" lon="4.50203">
        <ele>806.76</ele>
        <time>2019-02-07T12:52:17Z</time>
      </trkpt>
      <trkpt lat="44.78833" lon="4.50201">
        <ele>804.43</ele>
        <time>2019-02-07T12:52:29Z</time>
      </trkpt>
      <trkpt lat="44.78842" lon="4.50191">
        <ele>802.88</ele>
        <time>2019-02-07T12:52:43Z</time>
      </trkpt>
      <trkpt lat="44.78852" lon="4.50182">
        <ele>800.24</ele>
        <time>2019-02-07T12:52:59Z</time>
      </trkpt>
      <trkpt lat="44.78855" lon="4.50179">
        <ele>799.36</ele>
        <time>2019-02-07T12:53:03Z</time>
      </trkpt>
      <trkpt lat="44.78863" lon="4.50168">
        <ele>797.67</ele>
        <time>2019-02-07T12:53:18Z</time>
      </trkpt>
      <trkpt lat="44.78865" lon="4.50161">
        <ele>796.98</ele>
        <time>2019-02-07T12:53:37Z</time>
      </trkpt>
      <trkpt lat="44.78869" lon="4.50154">
        <ele>795.89</ele>
        <time>2019-02-07T12:53:45Z</time>
      </trkpt>
      <trkpt lat="44.78875" lon="4.50153">
        <ele>794.57</ele>
        <time>2019-02-07T12:54:01Z</time>
      </trkpt>
      <trkpt lat="44.78884" lon="4.50157">
        <ele>793.68</ele>
        <time>2019-02-07T12:54:16Z</time>
      </trkpt>
      <trkpt lat="44.78894" lon="4.50158">
        <ele>792.28</ele>
        <time>2019-02-07T12:54:27Z</time>
      </trkpt>
      <trkpt lat="44.789" lon="4.50171">
        <ele>790.38</ele>
        <time>2019-02-07T12:54:43Z</time>
      </trkpt>
      <trkpt lat="44.78901" lon="4.50183">
        <ele>788.38</ele>
        <time>2019-02-07T12:55:01Z</time>
      </trkpt>
      <trkpt lat="44.78904" lon="4.50193">
        <ele>786.41</ele>
        <time>2019-02-07T12:55:18Z</time>
      </trkpt>
      <trkpt lat="44.78911" lon="4.50202">
        <ele>784.19</ele>
        <time>2019-02-07T12:55:34Z</time>
      </trkpt>
      <trkpt lat="44.78914" lon="4.50206">
        <ele>782.86</ele>
        <time>2019-02-07T12:55:42Z</time>
      </trkpt>
      <trkpt lat="44.78918" lon="4.50219">
        <ele>781.54</ele>
        <time>2019-02-07T12:55:57Z</time>
      </trkpt>
      <trkpt lat="44.78918" lon="4.5022">
        <ele>781.08</ele>
        <time>2019-02-07T12:56:11Z</time>
      </trkpt>
      <trkpt lat="44.78917" lon="4.50219">
        <ele>781.32</ele>
        <time>2019-02-07T12:56:32Z</time>
      </trkpt>
      <trkpt lat="44.7892" lon="4.50238">
        <ele>779.45</ele>
        <time>2019-02-07T12:56:48Z</time>
      </trkpt>
      <trkpt lat="44.78923" lon="4.50247">
        <ele>778.33</ele>
        <time>2019-02-07T12:57:04Z</time>
      </trkpt>
      <trkpt lat="44.78924" lon="4.50248">
        <ele>778.15</ele>
        <time>2019-02-07T12:57:05Z</time>
      </trkpt>
      <trkpt lat="44.7893" lon="4.50266">
        <ele>777.35</ele>
        <time>2019-02-07T12:57:19Z</time>
      </trkpt>
      <trkpt lat="44.7894" lon="4.5028">
        <ele>776.64</ele>
        <time>2019-02-07T12:57:33Z</time>
      </trkpt>
      <trkpt lat="44.7894" lon="4.50285">
        <ele>776.3</ele>
        <time>2019-02-07T12:57:36Z</time>
      </trkpt>
      <trkpt lat="44.78936" lon="4.50304">
        <ele>773.54</ele>
        <time>2019-02-07T12:57:52Z</time>
      </trkpt>
      <trkpt lat="44.78934" lon="4.50327">
        <ele>773.18</ele>
        <time>2019-02-07T12:58:10Z</time>
      </trkpt>
      <trkpt lat="44.78938" lon="4.50351">
        <ele>773.24</ele>
        <time>2019-02-07T12:58:26Z</time>
      </trkpt>
      <trkpt lat="44.7894" lon="4.50364">
        <ele>773.14</ele>
        <time>2019-02-07T12:58:35Z</time>
      </trkpt>
      <trkpt lat="44.78948" lon="4.50383">
        <ele>773.95</ele>
        <time>2019-02-07T12:58:53Z</time>
      </trkpt>
      <trkpt lat="44.78956" lon="4.50409">
        <ele>773.61</ele>
        <time>2019-02-07T12:59:11Z</time>
      </trkpt>
      <trkpt lat="44.7896" lon="4.50423">
        <ele>773.42</ele>
        <time>2019-02-07T12:59:21Z</time>
      </trkpt>
      <trkpt lat="44.78964" lon="4.50439">
        <ele>772.7</ele>
        <time>2019-02-07T12:59:37Z</time>
      </trkpt>
      <trkpt lat="44.7897" lon="4.50458">
        <ele>770.62</ele>
        <time>2019-02-07T12:59:53Z</time>
      </trkpt>
      <trkpt lat="44.78974" lon="4.50465">
        <ele>769.96</ele>
        <time>2019-02-07T13:00:00Z</time>
      </trkpt>
      <trkpt lat="44.78982" lon="4.50489">
        <ele>768.41</ele>
        <time>2019-02-07T13:00:18Z</time>
      </trkpt>
      <trkpt lat="44.78985" lon="4.50501">
        <ele>767.72</ele>
        <time>2019-02-07T13:00:44Z</time>
      </trkpt>
      <trkpt lat="44.78981" lon="4.50511">
        <ele>766.26</ele>
        <time>2019-02-07T13:00:55Z</time>
      </trkpt>
      <trkpt lat="44.78978" lon="4.50528">
        <ele>764.78</ele>
        <time>2019-02-07T13:01:12Z</time>
      </trkpt>
      <trkpt lat="44.78977" lon="4.50537">
        <ele>763.9</ele>
        <time>2019-02-07T13:01:27Z</time>
      </trkpt>
      <trkpt lat="44.78974" lon="4.50559">
        <ele>760.94</ele>
        <time>2019-02-07T13:01:47Z</time>
      </trkpt>
      <trkpt lat="44.78973" lon="4.50573">
        <ele>759.94</ele>
        <time>2019-02-07T13:02:02Z</time>
      </trkpt>
      <trkpt lat="44.78973" lon="4.50579">
        <ele>759.46</ele>
        <time>2019-02-07T13:02:19Z</time>
      </trkpt>
      <trkpt lat="44.78973" lon="4.5058">
        <ele>759.39</ele>
        <time>2019-02-07T13:02:20Z</time>
      </trkpt>
      <trkpt lat="44.78974" lon="4.50608">
        <ele>757.6</ele>
        <time>2019-02-07T13:02:40Z</time>
      </trkpt>
      <trkpt lat="44.78977" lon="4.5062">
        <ele>757.17</ele>
        <time>2019-02-07T13:02:56Z</time>
      </trkpt>
      <trkpt lat="44.78977" lon="4.50621">
        <ele>757.06</ele>
        <time>2019-02-07T13:03:06Z</time>
      </trkpt>
      <trkpt lat="44.78978" lon="4.50627">
        <ele>756.42</ele>
        <time>2019-02-07T13:03:10Z</time>
      </trkpt>
      <trkpt lat="44.78984" lon="4.50656">
        <ele>756.12</ele>
        <time>2019-02-07T13:03:30Z</time>
      </trkpt>
      <trkpt lat="44.78987" lon="4.50667">
        <ele>756.31</ele>
        <time>2019-02-07T13:03:48Z</time>
      </trkpt>
      <trkpt lat="44.78988" lon="4.50669">
        <ele>756.02</ele>
        <time>2019-02-07T13:04:20Z</time>
      </trkpt>
      <trkpt lat="44.78992" lon="4.50681">
        <ele>755.84</ele>
        <time>2019-02-07T13:04:31Z</time>
      </trkpt>
      <trkpt lat="44.78998" lon="4.50707">
        <ele>755.85</ele>
        <time>2019-02-07T13:04:51Z</time>
      </trkpt>
      <trkpt lat="44.79001" lon="4.50732">
        <ele>754.89</ele>
        <time>2019-02-07T13:05:10Z</time>
      </trkpt>
      <trkpt lat="44.79001" lon="4.50754">
        <ele>753.32</ele>
        <time>2019-02-07T13:05:27Z</time>
      </trkpt>
      <trkpt lat="44.78999" lon="4.50767">
        <ele>752.84</ele>
        <time>2019-02-07T13:05:42Z</time>
      </trkpt>
      <trkpt lat="44.78992" lon="4.50765">
        <ele>750.81</ele>
        <time>2019-02-07T13:05:58Z</time>
      </trkpt>
      <trkpt lat="44.78987" lon="4.50768">
        <ele>749.33</ele>
        <time>2019-02-07T13:06:13Z</time>
      </trkpt>
      <trkpt lat="44.78984" lon="4.50785">
        <ele>748.11</ele>
        <time>2019-02-07T13:06:27Z</time>
      </trkpt>
      <trkpt lat="44.78981" lon="4.50811">
        <ele>747.73</ele>
        <time>2019-02-07T13:06:46Z</time>
      </trkpt>
      <trkpt lat="44.78981" lon="4.50812">
        <ele>747.66</ele>
        <time>2019-02-07T13:06:47Z</time>
      </trkpt>
      <trkpt lat="44.78975" lon="4.50841">
        <ele>747.81</ele>
        <time>2019-02-07T13:07:08Z</time>
      </trkpt>
      <trkpt lat="44.78978" lon="4.50847">
        <ele>747.95</ele>
        <time>2019-02-07T13:07:25Z</time>
      </trkpt>
      <trkpt lat="44.78985" lon="4.50851">
        <ele>747.58</ele>
        <time>2019-02-07T13:07:35Z</time>
      </trkpt>
      <trkpt lat="44.78989" lon="4.50845">
        <ele>746.05</ele>
        <time>2019-02-07T13:07:48Z</time>
      </trkpt>
      <trkpt lat="44.78992" lon="4.50842">
        <ele>746.28</ele>
        <time>2019-02-07T13:08:05Z</time>
      </trkpt>
      <trkpt lat="44.78993" lon="4.50841">
        <ele>746.29</ele>
        <time>2019-02-07T13:08:07Z</time>
      </trkpt>
      <trkpt lat="44.79006" lon="4.50841">
        <ele>746.52</ele>
        <time>2019-02-07T13:08:22Z</time>
      </trkpt>
      <trkpt lat="44.79007" lon="4.5084">
        <ele>746.63</ele>
        <time>2019-02-07T13:08:23Z</time>
      </trkpt>
      <trkpt lat="44.79016" lon="4.50839">
        <ele>745.98</ele>
        <time>2019-02-07T13:08:38Z</time>
      </trkpt>
      <trkpt lat="44.7902" lon="4.50838">
        <ele>745.74</ele>
        <time>2019-02-07T13:08:43Z</time>
      </trkpt>
      <trkpt lat="44.79026" lon="4.50838">
        <ele>745.46</ele>
        <time>2019-02-07T13:08:48Z</time>
      </trkpt>
      <trkpt lat="44.79039" lon="4.50839">
        <ele>744.3</ele>
        <time>2019-02-07T13:09:00Z</time>
      </trkpt>
      <trkpt lat="44.79046" lon="4.50844">
        <ele>743.29</ele>
        <time>2019-02-07T13:09:08Z</time>
      </trkpt>
      <trkpt lat="44.79051" lon="4.5085">
        <ele>742.5</ele>
        <time>2019-02-07T13:09:25Z</time>
      </trkpt>
      <trkpt lat="44.7905" lon="4.50855">
        <ele>741.45</ele>
        <time>2019-02-07T13:09:39Z</time>
      </trkpt>
      <trkpt lat="44.79052" lon="4.50863">
        <ele>739.86</ele>
        <time>2019-02-07T13:09:52Z</time>
      </trkpt>
      <trkpt lat="44.79064" lon="4.50867">
        <ele>738.28</ele>
        <time>2019-02-07T13:10:09Z</time>
      </trkpt>
      <trkpt lat="44.79072" lon="4.5087">
        <ele>737.19</ele>
        <time>2019-02-07T13:10:29Z</time>
      </trkpt>
      <trkpt lat="44.79085" lon="4.50881">
        <ele>735.23</ele>
        <time>2019-02-07T13:10:49Z</time>
      </trkpt>
      <trkpt lat="44.7909" lon="4.50894">
        <ele>732.96</ele>
        <time>2019-02-07T13:11:07Z</time>
      </trkpt>
      <trkpt lat="44.79092" lon="4.50895">
        <ele>732.57</ele>
        <time>2019-02-07T13:11:21Z</time>
      </trkpt>
      <trkpt lat="44.79097" lon="4.50896">
        <ele>732.48</ele>
        <time>2019-02-07T13:11:34Z</time>
      </trkpt>
      <trkpt lat="44.79109" lon="4.50903">
        <ele>731.13</ele>
        <time>2019-02-07T13:11:50Z</time>
      </trkpt>
      <trkpt lat="44.79113" lon="4.50905">
        <ele>730.79</ele>
        <time>2019-02-07T13:12:03Z</time>
      </trkpt>
      <trkpt lat="44.79118" lon="4.50905">
        <ele>730.41</ele>
        <time>2019-02-07T13:12:23Z</time>
      </trkpt>
      <trkpt lat="44.79121" lon="4.50904">
        <ele>730.3</ele>
        <time>2019-02-07T13:12:39Z</time>
      </trkpt>
      <trkpt lat="44.79136" lon="4.50913">
        <ele>728.7</ele>
        <time>2019-02-07T13:12:59Z</time>
      </trkpt>
      <trkpt lat="44.7914" lon="4.50919">
        <ele>727.78</ele>
        <time>2019-02-07T13:13:09Z</time>
      </trkpt>
      <trkpt lat="44.79139" lon="4.50938">
        <ele>725.8</ele>
        <time>2019-02-07T13:13:26Z</time>
      </trkpt>
      <trkpt lat="44.79136" lon="4.50953">
        <ele>725.23</ele>
        <time>2019-02-07T13:13:40Z</time>
      </trkpt>
      <trkpt lat="44.79134" lon="4.50956">
        <ele>723.74</ele>
        <time>2019-02-07T13:13:43Z</time>
      </trkpt>
      <trkpt lat="44.79125" lon="4.50958">
        <ele>722.55</ele>
        <time>2019-02-07T13:13:53Z</time>
      </trkpt>
      <trkpt lat="44.79112" lon="4.50962">
        <ele>720.32</ele>
        <time>2019-02-07T13:14:11Z</time>
      </trkpt>
      <trkpt lat="44.79114" lon="4.50978">
        <ele>717.15</ele>
        <time>2019-02-07T13:14:28Z</time>
      </trkpt>
      <trkpt lat="44.79126" lon="4.50993">
        <ele>715.11</ele>
        <time>2019-02-07T13:14:46Z</time>
      </trkpt>
      <trkpt lat="44.79126" lon="4.50994">
        <ele>714.93</ele>
        <time>2019-02-07T13:14:47Z</time>
      </trkpt>
      <trkpt lat="44.79129" lon="4.51001">
        <ele>714.14</ele>
        <time>2019-02-07T13:14:53Z</time>
      </trkpt>
      <trkpt lat="44.79133" lon="4.51005">
        <ele>713.79</ele>
        <time>2019-02-07T13:14:58Z</time>
      </trkpt>
      <trkpt lat="44.7914" lon="4.51019">
        <ele>713.29</ele>
        <time>2019-02-07T13:15:16Z</time>
      </trkpt>
      <trkpt lat="44.79143" lon="4.51021">
        <ele>713.36</ele>
        <time>2019-02-07T13:15:29Z</time>
      </trkpt>
      <trkpt lat="44.79153" lon="4.51034">
        <ele>714.1</ele>
        <time>2019-02-07T13:15:44Z</time>
      </trkpt>
      <trkpt lat="44.79165" lon="4.5106">
        <ele>714.79</ele>
        <time>2019-02-07T13:16:04Z</time>
      </trkpt>
      <trkpt lat="44.79176" lon="4.5108">
        <ele>715.74</ele>
        <time>2019-02-07T13:16:20Z</time>
      </trkpt>
      <trkpt lat="44.79184" lon="4.51102">
        <ele>716.62</ele>
        <time>2019-02-07T13:16:36Z</time>
      </trkpt>
      <trkpt lat="44.79187" lon="4.51123">
        <ele>716.99</ele>
        <time>2019-02-07T13:16:51Z</time>
      </trkpt>
      <trkpt lat="44.79185" lon="4.51157">
        <ele>717.16</ele>
        <time>2019-02-07T13:17:12Z</time>
      </trkpt>
      <trkpt lat="44.79182" lon="4.51192">
        <ele>716.22</ele>
        <time>2019-02-07T13:17:33Z</time>
      </trkpt>
      <trkpt lat="44.79182" lon="4.51202">
        <ele>716.07</ele>
        <time>2019-02-07T13:17:39Z</time>
      </trkpt>
      <trkpt lat="44.79182" lon="4.51221">
        <ele>715.88</ele>
        <time>2019-02-07T13:17:56Z</time>
      </trkpt>
      <trkpt lat="44.79184" lon="4.51245">
        <ele>715.76</ele>
        <time>2019-02-07T13:18:12Z</time>
      </trkpt>
      <trkpt lat="44.79184" lon="4.51252">
        <ele>715.9</ele>
        <time>2019-02-07T13:18:25Z</time>
      </trkpt>
      <trkpt lat="44.79188" lon="4.51269">
        <ele>715.59</ele>
        <time>2019-02-07T13:18:42Z</time>
      </trkpt>
      <trkpt lat="44.79191" lon="4.51274">
        <ele>715.25</ele>
        <time>2019-02-07T13:18:50Z</time>
      </trkpt>
      <trkpt lat="44.79195" lon="4.51281">
        <ele>715.24</ele>
        <time>2019-02-07T13:19:08Z</time>
      </trkpt>
      <trkpt lat="44.79195" lon="4.51281">
        <ele>715.11</ele>
        <time>2019-02-07T13:19:32Z</time>
      </trkpt>
      <trkpt lat="44.79196" lon="4.51281">
        <ele>714.08</ele>
        <time>2019-02-07T13:20:03Z</time>
      </trkpt>
      <trkpt lat="44.79196" lon="4.5128">
        <ele>715.73</ele>
        <time>2019-02-07T13:20:28Z</time>
      </trkpt>
      <trkpt lat="44.79196" lon="4.51279">
        <ele>715.61</ele>
        <time>2019-02-07T13:20:53Z</time>
      </trkpt>
      <trkpt lat="44.79196" lon="4.5128">
        <ele>715.6</ele>
        <time>2019-02-07T13:21:09Z</time>
      </trkpt>
      <trkpt lat="44.79201" lon="4.51289">
        <ele>715.47</ele>
        <time>2019-02-07T13:21:24Z</time>
      </trkpt>
      <trkpt lat="44.79209" lon="4.51303">
        <ele>715.17</ele>
        <time>2019-02-07T13:21:36Z</time>
      </trkpt>
      <trkpt lat="44.79219" lon="4.51326">
        <ele>714.56</ele>
        <time>2019-02-07T13:21:52Z</time>
      </trkpt>
      <trkpt lat="44.79233" lon="4.51355">
        <ele>714.36</ele>
        <time>2019-02-07T13:22:13Z</time>
      </trkpt>
      <trkpt lat="44.79252" lon="4.5137">
        <ele>713.6</ele>
        <time>2019-02-07T13:22:32Z</time>
      </trkpt>
      <trkpt lat="44.79273" lon="4.51378">
        <ele>713.05</ele>
        <time>2019-02-07T13:22:50Z</time>
      </trkpt>
      <trkpt lat="44.79294" lon="4.5138">
        <ele>712.75</ele>
        <time>2019-02-07T13:23:08Z</time>
      </trkpt>
      <trkpt lat="44.79311" lon="4.51379">
        <ele>713.18</ele>
        <time>2019-02-07T13:23:23Z</time>
      </trkpt>
      <trkpt lat="44.79332" lon="4.51377">
        <ele>713.86</ele>
        <time>2019-02-07T13:23:41Z</time>
      </trkpt>
      <trkpt lat="44.7935" lon="4.51377">
        <ele>714.4</ele>
        <time>2019-02-07T13:23:55Z</time>
      </trkpt>
      <trkpt lat="44.79378" lon="4.5139">
        <ele>713.92</ele>
        <time>2019-02-07T13:24:18Z</time>
      </trkpt>
      <trkpt lat="44.79398" lon="4.51407">
        <ele>713.13</ele>
        <time>2019-02-07T13:24:37Z</time>
      </trkpt>
      <trkpt lat="44.79414" lon="4.51438">
        <ele>713.16</ele>
        <time>2019-02-07T13:24:58Z</time>
      </trkpt>
      <trkpt lat="44.79424" lon="4.51466">
        <ele>713.13</ele>
        <time>2019-02-07T13:25:16Z</time>
      </trkpt>
      <trkpt lat="44.79427" lon="4.51475">
        <ele>713.34</ele>
        <time>2019-02-07T13:25:22Z</time>
      </trkpt>
      <trkpt lat="44.79432" lon="4.51496">
        <ele>713.58</ele>
        <time>2019-02-07T13:25:38Z</time>
      </trkpt>
      <trkpt lat="44.79433" lon="4.51515">
        <ele>713.98</ele>
        <time>2019-02-07T13:25:54Z</time>
      </trkpt>
      <trkpt lat="44.79432" lon="4.51523">
        <ele>713.83</ele>
        <time>2019-02-07T13:26:19Z</time>
      </trkpt>
      <trkpt lat="44.79433" lon="4.51524">
        <ele>713.97</ele>
        <time>2019-02-07T13:26:32Z</time>
      </trkpt>
      <trkpt lat="44.79432" lon="4.51527">
        <ele>713.88</ele>
        <time>2019-02-07T13:26:58Z</time>
      </trkpt>
      <trkpt lat="44.79433" lon="4.51534">
        <ele>713.73</ele>
        <time>2019-02-07T13:27:20Z</time>
      </trkpt>
      <trkpt lat="44.79435" lon="4.51555">
        <ele>714.6</ele>
        <time>2019-02-07T13:27:37Z</time>
      </trkpt>
      <trkpt lat="44.79433" lon="4.51584">
        <ele>714.98</ele>
        <time>2019-02-07T13:27:56Z</time>
      </trkpt>
      <trkpt lat="44.7943" lon="4.51608">
        <ele>714.8</ele>
        <time>2019-02-07T13:28:12Z</time>
      </trkpt>
      <trkpt lat="44.79425" lon="4.51637">
        <ele>715.05</ele>
        <time>2019-02-07T13:28:30Z</time>
      </trkpt>
      <trkpt lat="44.79418" lon="4.51661">
        <ele>715.47</ele>
        <time>2019-02-07T13:28:47Z</time>
      </trkpt>
      <trkpt lat="44.79413" lon="4.51688">
        <ele>715.92</ele>
        <time>2019-02-07T13:29:03Z</time>
      </trkpt>
      <trkpt lat="44.79414" lon="4.51724">
        <ele>716.44</ele>
        <time>2019-02-07T13:29:25Z</time>
      </trkpt>
      <trkpt lat="44.79423" lon="4.51754">
        <ele>716.52</ele>
        <time>2019-02-07T13:29:45Z</time>
      </trkpt>
      <trkpt lat="44.79425" lon="4.51786">
        <ele>716.48</ele>
        <time>2019-02-07T13:30:06Z</time>
      </trkpt>
      <trkpt lat="44.79438" lon="4.51807">
        <ele>716.04</ele>
        <time>2019-02-07T13:30:23Z</time>
      </trkpt>
      <trkpt lat="44.79459" lon="4.51816">
        <ele>714.88</ele>
        <time>2019-02-07T13:30:41Z</time>
      </trkpt>
      <trkpt lat="44.79474" lon="4.51812">
        <ele>714.22</ele>
        <time>2019-02-07T13:30:54Z</time>
      </trkpt>
      <trkpt lat="44.79494" lon="4.51808">
        <ele>713.64</ele>
        <time>2019-02-07T13:31:11Z</time>
      </trkpt>
      <trkpt lat="44.79513" lon="4.51805">
        <ele>713.33</ele>
        <time>2019-02-07T13:31:27Z</time>
      </trkpt>
      <trkpt lat="44.79521" lon="4.51804">
        <ele>713.36</ele>
        <time>2019-02-07T13:31:34Z</time>
      </trkpt>
      <trkpt lat="44.79536" lon="4.51811">
        <ele>712.92</ele>
        <time>2019-02-07T13:31:50Z</time>
      </trkpt>
      <trkpt lat="44.79542" lon="4.51817">
        <ele>712.49</ele>
        <time>2019-02-07T13:31:57Z</time>
      </trkpt>
      <trkpt lat="44.79562" lon="4.51835">
        <ele>712.15</ele>
        <time>2019-02-07T13:32:17Z</time>
      </trkpt>
      <trkpt lat="44.79577" lon="4.51849">
        <ele>711.98</ele>
        <time>2019-02-07T13:32:33Z</time>
      </trkpt>
      <trkpt lat="44.79593" lon="4.51862">
        <ele>711.69</ele>
        <time>2019-02-07T13:32:49Z</time>
      </trkpt>
      <trkpt lat="44.79611" lon="4.51881">
        <ele>711.25</ele>
        <time>2019-02-07T13:33:09Z</time>
      </trkpt>
      <trkpt lat="44.79627" lon="4.51908">
        <ele>710.95</ele>
        <time>2019-02-07T13:33:28Z</time>
      </trkpt>
      <trkpt lat="44.79642" lon="4.51937">
        <ele>711.31</ele>
        <time>2019-02-07T13:33:49Z</time>
      </trkpt>
      <trkpt lat="44.79656" lon="4.51956">
        <ele>710.89</ele>
        <time>2019-02-07T13:34:07Z</time>
      </trkpt>
      <trkpt lat="44.79672" lon="4.51978">
        <ele>710.81</ele>
        <time>2019-02-07T13:34:26Z</time>
      </trkpt>
      <trkpt lat="44.79691" lon="4.52002">
        <ele>710.28</ele>
        <time>2019-02-07T13:34:47Z</time>
      </trkpt>
      <trkpt lat="44.79702" lon="4.52024">
        <ele>710.38</ele>
        <time>2019-02-07T13:35:04Z</time>
      </trkpt>
      <trkpt lat="44.79703" lon="4.52027">
        <ele>710.44</ele>
        <time>2019-02-07T13:35:13Z</time>
      </trkpt>
      <trkpt lat="44.79704" lon="4.52029">
        <ele>710.57</ele>
        <time>2019-02-07T13:35:15Z</time>
      </trkpt>
      <trkpt lat="44.79721" lon="4.52058">
        <ele>710.38</ele>
        <time>2019-02-07T13:35:38Z</time>
      </trkpt>
      <trkpt lat="44.79734" lon="4.52088">
        <ele>710.55</ele>
        <time>2019-02-07T13:36:00Z</time>
      </trkpt>
      <trkpt lat="44.79745" lon="4.52117">
        <ele>710.37</ele>
        <time>2019-02-07T13:36:20Z</time>
      </trkpt>
      <trkpt lat="44.79755" lon="4.52147">
        <ele>710.62</ele>
        <time>2019-02-07T13:36:41Z</time>
      </trkpt>
      <trkpt lat="44.79758" lon="4.52153">
        <ele>710.35</ele>
        <time>2019-02-07T13:36:57Z</time>
      </trkpt>
      <trkpt lat="44.79759" lon="4.52155">
        <ele>710.37</ele>
        <time>2019-02-07T13:37:01Z</time>
      </trkpt>
      <trkpt lat="44.79761" lon="4.52157">
        <ele>710.49</ele>
        <time>2019-02-07T13:37:04Z</time>
      </trkpt>
      <trkpt lat="44.79767" lon="4.52164">
        <ele>710.7</ele>
        <time>2019-02-07T13:37:24Z</time>
      </trkpt>
      <trkpt lat="44.79768" lon="4.52165">
        <ele>710.39</ele>
        <time>2019-02-07T13:37:45Z</time>
      </trkpt>
      <trkpt lat="44.79769" lon="4.52166">
        <ele>710.4</ele>
        <time>2019-02-07T13:37:50Z</time>
      </trkpt>
      <trkpt lat="44.79772" lon="4.52172">
        <ele>710.17</ele>
        <time>2019-02-07T13:38:00Z</time>
      </trkpt>
      <trkpt lat="44.79765" lon="4.52193">
        <ele>709.82</ele>
        <time>2019-02-07T13:38:19Z</time>
      </trkpt>
      <trkpt lat="44.79764" lon="4.52196">
        <ele>709.75</ele>
        <time>2019-02-07T13:38:30Z</time>
      </trkpt>
      <trkpt lat="44.7976" lon="4.52209">
        <ele>710.67</ele>
        <time>2019-02-07T13:38:48Z</time>
      </trkpt>
      <trkpt lat="44.79759" lon="4.52209">
        <ele>710.33</ele>
        <time>2019-02-07T13:39:12Z</time>
      </trkpt>
      <trkpt lat="44.79758" lon="4.52212">
        <ele>710.07</ele>
        <time>2019-02-07T13:39:43Z</time>
      </trkpt>
      <trkpt lat="44.79757" lon="4.52215">
        <ele>710.31</ele>
        <time>2019-02-07T13:40:03Z</time>
      </trkpt>
      <trkpt lat="44.79755" lon="4.52219">
        <ele>709.74</ele>
        <time>2019-02-07T13:40:42Z</time>
      </trkpt>
      <trkpt lat="44.79753" lon="4.52224">
        <ele>710.79</ele>
        <time>2019-02-07T13:40:59Z</time>
      </trkpt>
      <trkpt lat="44.79753" lon="4.52225">
        <ele>710.77</ele>
        <time>2019-02-07T13:41:20Z</time>
      </trkpt>
      <trkpt lat="44.79752" lon="4.52227">
        <ele>710.51</ele>
        <time>2019-02-07T13:41:38Z</time>
      </trkpt>
      <trkpt lat="44.79743" lon="4.52248">
        <ele>711.15</ele>
        <time>2019-02-07T13:41:57Z</time>
      </trkpt>
      <trkpt lat="44.79736" lon="4.52263">
        <ele>710.95</ele>
        <time>2019-02-07T13:42:09Z</time>
      </trkpt>
      <trkpt lat="44.79724" lon="4.5229">
        <ele>709.9</ele>
        <time>2019-02-07T13:42:30Z</time>
      </trkpt>
      <trkpt lat="44.79722" lon="4.52294">
        <ele>709.87</ele>
        <time>2019-02-07T13:42:43Z</time>
      </trkpt>
      <trkpt lat="44.7972" lon="4.523">
        <ele>709.99</ele>
        <time>2019-02-07T13:43:00Z</time>
      </trkpt>
      <trkpt lat="44.7972" lon="4.523">
        <ele>709.46</ele>
        <time>2019-02-07T13:43:45Z</time>
      </trkpt>
      <trkpt lat="44.79719" lon="4.52301">
        <ele>709.34</ele>
        <time>2019-02-07T13:43:48Z</time>
      </trkpt>
      <trkpt lat="44.79717" lon="4.52307">
        <ele>709.18</ele>
        <time>2019-02-07T13:43:53Z</time>
      </trkpt>
      <trkpt lat="44.79706" lon="4.52334">
        <ele>709.01</ele>
        <time>2019-02-07T13:44:11Z</time>
      </trkpt>
      <trkpt lat="44.79695" lon="4.52366">
        <ele>708.88</ele>
        <time>2019-02-07T13:44:33Z</time>
      </trkpt>
      <trkpt lat="44.79689" lon="4.52383">
        <ele>708.78</ele>
        <time>2019-02-07T13:44:51Z</time>
      </trkpt>
      <trkpt lat="44.79688" lon="4.52384">
        <ele>708.54</ele>
        <time>2019-02-07T13:45:12Z</time>
      </trkpt>
      <trkpt lat="44.79686" lon="4.52394">
        <ele>708.67</ele>
        <time>2019-02-07T13:45:18Z</time>
      </trkpt>
      <trkpt lat="44.79684" lon="4.52423">
        <ele>708.01</ele>
        <time>2019-02-07T13:45:37Z</time>
      </trkpt>
      <trkpt lat="44.7968" lon="4.52457">
        <ele>706.35</ele>
        <time>2019-02-07T13:45:58Z</time>
      </trkpt>
      <trkpt lat="44.79677" lon="4.52482">
        <ele>704.37</ele>
        <time>2019-02-07T13:46:18Z</time>
      </trkpt>
      <trkpt lat="44.79676" lon="4.52485">
        <ele>704.22</ele>
        <time>2019-02-07T13:46:39Z</time>
      </trkpt>
      <trkpt lat="44.79676" lon="4.52487">
        <ele>704.09</ele>
        <time>2019-02-07T13:46:41Z</time>
      </trkpt>
      <trkpt lat="44.79676" lon="4.52517">
        <ele>701.96</ele>
        <time>2019-02-07T13:47:02Z</time>
      </trkpt>
      <trkpt lat="44.79675" lon="4.5252">
        <ele>701.61</ele>
        <time>2019-02-07T13:47:14Z</time>
      </trkpt>
      <trkpt lat="44.79675" lon="4.52538">
        <ele>700.94</ele>
        <time>2019-02-07T13:47:32Z</time>
      </trkpt>
      <trkpt lat="44.79675" lon="4.52541">
        <ele>700.65</ele>
        <time>2019-02-07T13:47:52Z</time>
      </trkpt>
      <trkpt lat="44.79675" lon="4.52562">
        <ele>699.06</ele>
        <time>2019-02-07T13:48:08Z</time>
      </trkpt>
      <trkpt lat="44.79676" lon="4.52584">
        <ele>697.69</ele>
        <time>2019-02-07T13:48:25Z</time>
      </trkpt>
      <trkpt lat="44.79677" lon="4.52613">
        <ele>696.36</ele>
        <time>2019-02-07T13:48:44Z</time>
      </trkpt>
      <trkpt lat="44.79675" lon="4.52641">
        <ele>694.91</ele>
        <time>2019-02-07T13:49:02Z</time>
      </trkpt>
      <trkpt lat="44.79672" lon="4.52667">
        <ele>694.28</ele>
        <time>2019-02-07T13:49:19Z</time>
      </trkpt>
      <trkpt lat="44.79667" lon="4.52698">
        <ele>692.79</ele>
        <time>2019-02-07T13:49:39Z</time>
      </trkpt>
      <trkpt lat="44.79659" lon="4.52726">
        <ele>691.86</ele>
        <time>2019-02-07T13:49:57Z</time>
      </trkpt>
      <trkpt lat="44.79651" lon="4.52754">
        <ele>691.47</ele>
        <time>2019-02-07T13:50:16Z</time>
      </trkpt>
      <trkpt lat="44.79651" lon="4.52754">
        <ele>691.32</ele>
        <time>2019-02-07T13:50:41Z</time>
      </trkpt>
      <trkpt lat="44.79651" lon="4.52754">
        <ele>690.85</ele>
        <time>2019-02-07T13:51:04Z</time>
      </trkpt>
      <trkpt lat="44.79651" lon="4.52754">
        <ele>691.08</ele>
        <time>2019-02-07T13:51:53Z</time>
      </trkpt>
      <trkpt lat="44.7965" lon="4.5276">
        <ele>691.16</ele>
        <time>2019-02-07T13:52:17Z</time>
      </trkpt>
      <trkpt lat="44.79647" lon="4.52766">
        <ele>691.42</ele>
        <time>2019-02-07T13:52:23Z</time>
      </trkpt>
      <trkpt lat="44.79644" lon="4.52774">
        <ele>691.53</ele>
        <time>2019-02-07T13:52:29Z</time>
      </trkpt>
      <trkpt lat="44.79635" lon="4.52811">
        <ele>691.47</ele>
        <time>2019-02-07T13:52:53Z</time>
      </trkpt>
      <trkpt lat="44.79626" lon="4.52849">
        <ele>691.5</ele>
        <time>2019-02-07T13:53:17Z</time>
      </trkpt>
      <trkpt lat="44.79624" lon="4.52858">
        <ele>691.11</ele>
        <time>2019-02-07T13:53:31Z</time>
      </trkpt>
      <trkpt lat="44.79616" lon="4.52889">
        <ele>690.12</ele>
        <time>2019-02-07T13:53:51Z</time>
      </trkpt>
      <trkpt lat="44.79599" lon="4.52925">
        <ele>688.5</ele>
        <time>2019-02-07T13:54:15Z</time>
      </trkpt>
      <trkpt lat="44.79595" lon="4.5293">
        <ele>687.75</ele>
        <time>2019-02-07T13:54:31Z</time>
      </trkpt>
      <trkpt lat="44.79594" lon="4.52932">
        <ele>687.73</ele>
        <time>2019-02-07T13:54:34Z</time>
      </trkpt>
      <trkpt lat="44.79589" lon="4.52944">
        <ele>686.87</ele>
        <time>2019-02-07T13:54:48Z</time>
      </trkpt>
      <trkpt lat="44.79589" lon="4.52942">
        <ele>686.99</ele>
        <time>2019-02-07T13:55:08Z</time>
      </trkpt>
      <trkpt lat="44.79593" lon="4.52946">
        <ele>687.58</ele>
        <time>2019-02-07T13:55:18Z</time>
      </trkpt>
      <trkpt lat="44.79597" lon="4.52946">
        <ele>687.86</ele>
        <time>2019-02-07T13:55:36Z</time>
      </trkpt>
      <trkpt lat="44.796" lon="4.52947">
        <ele>687.76</ele>
        <time>2019-02-07T13:55:52Z</time>
      </trkpt>
      <trkpt lat="44.79605" lon="4.52952">
        <ele>687.59</ele>
        <time>2019-02-07T13:56:28Z</time>
      </trkpt>
      <trkpt lat="44.79608" lon="4.52954">
        <ele>687.95</ele>
        <time>2019-02-07T13:56:32Z</time>
      </trkpt>
      <trkpt lat="44.79614" lon="4.52957">
        <ele>688.23</ele>
        <time>2019-02-07T13:56:39Z</time>
      </trkpt>
      <trkpt lat="44.7963" lon="4.52965">
        <ele>687.81</ele>
        <time>2019-02-07T13:56:58Z</time>
      </trkpt>
      <trkpt lat="44.79632" lon="4.52965">
        <ele>688.07</ele>
        <time>2019-02-07T13:57:12Z</time>
      </trkpt>
      <trkpt lat="44.79631" lon="4.52963">
        <ele>687.97</ele>
        <time>2019-02-07T13:57:45Z</time>
      </trkpt>
      <trkpt lat="44.79631" lon="4.52963">
        <ele>687.88</ele>
        <time>2019-02-07T13:58:24Z</time>
      </trkpt>
      <trkpt lat="44.79634" lon="4.52965">
        <ele>688.24</ele>
        <time>2019-02-07T13:58:46Z</time>
      </trkpt>
      <trkpt lat="44.79636" lon="4.52965">
        <ele>688.28</ele>
        <time>2019-02-07T13:58:48Z</time>
      </trkpt>
      <trkpt lat="44.79645" lon="4.52968">
        <ele>687.9</ele>
        <time>2019-02-07T13:59:04Z</time>
      </trkpt>
      <trkpt lat="44.79647" lon="4.52968">
        <ele>687.87</ele>
        <time>2019-02-07T13:59:24Z</time>
      </trkpt>
      <trkpt lat="44.79652" lon="4.5297">
        <ele>687.77</ele>
        <time>2019-02-07T13:59:40Z</time>
      </trkpt>
      <trkpt lat="44.79654" lon="4.52973">
        <ele>687.43</ele>
        <time>2019-02-07T14:00:07Z</time>
      </trkpt>
      <trkpt lat="44.79673" lon="4.52987">
        <ele>687.66</ele>
        <time>2019-02-07T14:00:25Z</time>
      </trkpt>
      <trkpt lat="44.79686" lon="4.52997">
        <ele>687.43</ele>
        <time>2019-02-07T14:00:44Z</time>
      </trkpt>
      <trkpt lat="44.79686" lon="4.52997">
        <ele>687.5</ele>
        <time>2019-02-07T14:00:47Z</time>
      </trkpt>
      <trkpt lat="44.7969" lon="4.52999">
        <ele>687.84</ele>
        <time>2019-02-07T14:00:51Z</time>
      </trkpt>
      <trkpt lat="44.79708" lon="4.53019">
        <ele>686.56</ele>
        <time>2019-02-07T14:01:12Z</time>
      </trkpt>
      <trkpt lat="44.79722" lon="4.53029">
        <ele>686.44</ele>
        <time>2019-02-07T14:01:28Z</time>
      </trkpt>
      <trkpt lat="44.7973" lon="4.5304">
        <ele>685.96</ele>
        <time>2019-02-07T14:01:38Z</time>
      </trkpt>
      <trkpt lat="44.79745" lon="4.53057">
        <ele>685.89</ele>
        <time>2019-02-07T14:01:57Z</time>
      </trkpt>
      <trkpt lat="44.7976" lon="4.53071">
        <ele>685.38</ele>
        <time>2019-02-07T14:02:13Z</time>
      </trkpt>
      <trkpt lat="44.79772" lon="4.53086">
        <ele>683.58</ele>
        <time>2019-02-07T14:02:31Z</time>
      </trkpt>
      <trkpt lat="44.79784" lon="4.53097">
        <ele>682.52</ele>
        <time>2019-02-07T14:02:47Z</time>
      </trkpt>
      <trkpt lat="44.79798" lon="4.5311">
        <ele>680.42</ele>
        <time>2019-02-07T14:03:03Z</time>
      </trkpt>
      <trkpt lat="44.79804" lon="4.53122">
        <ele>677.37</ele>
        <time>2019-02-07T14:03:19Z</time>
      </trkpt>
      <trkpt lat="44.79813" lon="4.53129">
        <ele>675.23</ele>
        <time>2019-02-07T14:03:35Z</time>
      </trkpt>
      <trkpt lat="44.79815" lon="4.53136">
        <ele>672.57</ele>
        <time>2019-02-07T14:03:51Z</time>
      </trkpt>
      <trkpt lat="44.79816" lon="4.53143">
        <ele>670.82</ele>
        <time>2019-02-07T14:04:05Z</time>
      </trkpt>
      <trkpt lat="44.79823" lon="4.5315">
        <ele>669.47</ele>
        <time>2019-02-07T14:04:25Z</time>
      </trkpt>
      <trkpt lat="44.79824" lon="4.53148">
        <ele>668.83</ele>
        <time>2019-02-07T14:04:43Z</time>
      </trkpt>
      <trkpt lat="44.79825" lon="4.53149">
        <ele>669.5</ele>
        <time>2019-02-07T14:04:53Z</time>
      </trkpt>
      <trkpt lat="44.79836" lon="4.53155">
        <ele>669.45</ele>
        <time>2019-02-07T14:05:09Z</time>
      </trkpt>
      <trkpt lat="44.79837" lon="4.53155">
        <ele>669.73</ele>
        <time>2019-02-07T14:05:11Z</time>
      </trkpt>
      <trkpt lat="44.79844" lon="4.53159">
        <ele>670.22</ele>
        <time>2019-02-07T14:05:19Z</time>
      </trkpt>
      <trkpt lat="44.79852" lon="4.5317">
        <ele>670.49</ele>
        <time>2019-02-07T14:05:34Z</time>
      </trkpt>
      <trkpt lat="44.79852" lon="4.53171">
        <ele>670.42</ele>
        <time>2019-02-07T14:05:36Z</time>
      </trkpt>
      <trkpt lat="44.79866" lon="4.53181">
        <ele>670.65</ele>
        <time>2019-02-07T14:05:52Z</time>
      </trkpt>
      <trkpt lat="44.79873" lon="4.5319">
        <ele>668.54</ele>
        <time>2019-02-07T14:06:05Z</time>
      </trkpt>
      <trkpt lat="44.7988" lon="4.532">
        <ele>665.97</ele>
        <time>2019-02-07T14:06:20Z</time>
      </trkpt>
      <trkpt lat="44.7988" lon="4.532">
        <ele>665.68</ele>
        <time>2019-02-07T14:06:37Z</time>
      </trkpt>
      <trkpt lat="44.79884" lon="4.532">
        <ele>665.21</ele>
        <time>2019-02-07T14:07:04Z</time>
      </trkpt>
      <trkpt lat="44.79886" lon="4.53195">
        <ele>665.36</ele>
        <time>2019-02-07T14:07:19Z</time>
      </trkpt>
      <trkpt lat="44.79883" lon="4.53202">
        <ele>664.92</ele>
        <time>2019-02-07T14:07:43Z</time>
      </trkpt>
      <trkpt lat="44.79887" lon="4.53205">
        <ele>664.04</ele>
        <time>2019-02-07T14:08:08Z</time>
      </trkpt>
      <trkpt lat="44.79894" lon="4.53213">
        <ele>661.94</ele>
        <time>2019-02-07T14:08:25Z</time>
      </trkpt>
      <trkpt lat="44.79896" lon="4.53216">
        <ele>661.4</ele>
        <time>2019-02-07T14:08:51Z</time>
      </trkpt>
      <trkpt lat="44.79898" lon="4.5322">
        <ele>660.4</ele>
        <time>2019-02-07T14:09:19Z</time>
      </trkpt>
      <trkpt lat="44.79905" lon="4.5323">
        <ele>658.65</ele>
        <time>2019-02-07T14:09:31Z</time>
      </trkpt>
      <trkpt lat="44.79913" lon="4.53255">
        <ele>656.6</ele>
        <time>2019-02-07T14:09:51Z</time>
      </trkpt>
      <trkpt lat="44.79916" lon="4.53284">
        <ele>655.05</ele>
        <time>2019-02-07T14:10:11Z</time>
      </trkpt>
      <trkpt lat="44.79921" lon="4.53307">
        <ele>653.67</ele>
        <time>2019-02-07T14:10:27Z</time>
      </trkpt>
      <trkpt lat="44.79928" lon="4.53335">
        <ele>651.96</ele>
        <time>2019-02-07T14:10:46Z</time>
      </trkpt>
      <trkpt lat="44.79939" lon="4.53364">
        <ele>649.79</ele>
        <time>2019-02-07T14:11:08Z</time>
      </trkpt>
      <trkpt lat="44.79949" lon="4.53388">
        <ele>647.41</ele>
        <time>2019-02-07T14:11:28Z</time>
      </trkpt>
      <trkpt lat="44.79956" lon="4.53407">
        <ele>644.5</ele>
        <time>2019-02-07T14:11:46Z</time>
      </trkpt>
      <trkpt lat="44.79961" lon="4.53414">
        <ele>643.06</ele>
        <time>2019-02-07T14:11:59Z</time>
      </trkpt>
      <trkpt lat="44.7997" lon="4.53426">
        <ele>640.77</ele>
        <time>2019-02-07T14:12:13Z</time>
      </trkpt>
      <trkpt lat="44.7998" lon="4.53439">
        <ele>637.81</ele>
        <time>2019-02-07T14:12:29Z</time>
      </trkpt>
      <trkpt lat="44.79983" lon="4.53443">
        <ele>636.35</ele>
        <time>2019-02-07T14:12:43Z</time>
      </trkpt>
      <trkpt lat="44.79985" lon="4.53446">
        <ele>635.98</ele>
        <time>2019-02-07T14:12:46Z</time>
      </trkpt>
      <trkpt lat="44.79996" lon="4.53464">
        <ele>632.73</ele>
        <time>2019-02-07T14:13:03Z</time>
      </trkpt>
      <trkpt lat="44.80003" lon="4.53479">
        <ele>630.19</ele>
        <time>2019-02-07T14:13:20Z</time>
      </trkpt>
      <trkpt lat="44.80015" lon="4.53498">
        <ele>627.59</ele>
        <time>2019-02-07T14:13:39Z</time>
      </trkpt>
      <trkpt lat="44.80026" lon="4.5351">
        <ele>625.19</ele>
        <time>2019-02-07T14:13:57Z</time>
      </trkpt>
      <trkpt lat="44.80032" lon="4.53516">
        <ele>623.89</ele>
        <time>2019-02-07T14:14:21Z</time>
      </trkpt>
      <trkpt lat="44.80042" lon="4.5353">
        <ele>620.79</ele>
        <time>2019-02-07T14:14:38Z</time>
      </trkpt>
      <trkpt lat="44.80053" lon="4.53545">
        <ele>617.64</ele>
        <time>2019-02-07T14:14:55Z</time>
      </trkpt>
      <trkpt lat="44.80064" lon="4.5356">
        <ele>614.56</ele>
        <time>2019-02-07T14:15:13Z</time>
      </trkpt>
      <trkpt lat="44.80069" lon="4.53566">
        <ele>613.38</ele>
        <time>2019-02-07T14:15:25Z</time>
      </trkpt>
      <trkpt lat="44.80072" lon="4.5357">
        <ele>612.4</ele>
        <time>2019-02-07T14:15:42Z</time>
      </trkpt>
      <trkpt lat="44.80083" lon="4.53581">
        <ele>609.19</ele>
        <time>2019-02-07T14:15:58Z</time>
      </trkpt>
      <trkpt lat="44.80091" lon="4.53589">
        <ele>606.94</ele>
        <time>2019-02-07T14:16:15Z</time>
      </trkpt>
      <trkpt lat="44.80092" lon="4.5359">
        <ele>606.79</ele>
        <time>2019-02-07T14:16:17Z</time>
      </trkpt>
      <trkpt lat="44.80097" lon="4.53603">
        <ele>606.46</ele>
        <time>2019-02-07T14:16:29Z</time>
      </trkpt>
      <trkpt lat="44.80093" lon="4.53609">
        <ele>606.8</ele>
        <time>2019-02-07T14:16:34Z</time>
      </trkpt>
      <trkpt lat="44.8009" lon="4.53612">
        <ele>606.43</ele>
        <time>2019-02-07T14:16:48Z</time>
      </trkpt>
      <trkpt lat="44.8009" lon="4.5361">
        <ele>606.85</ele>
        <time>2019-02-07T14:17:05Z</time>
      </trkpt>
      <trkpt lat="44.80093" lon="4.53603">
        <ele>606.73</ele>
        <time>2019-02-07T14:17:21Z</time>
      </trkpt>
      <trkpt lat="44.80095" lon="4.53602">
        <ele>606.98</ele>
        <time>2019-02-07T14:17:42Z</time>
      </trkpt>
      <trkpt lat="44.80097" lon="4.53602">
        <ele>606.63</ele>
        <time>2019-02-07T14:18:08Z</time>
      </trkpt>
    </trkseg>
  </trk>
</gpx>